<?xml version="1.0" encoding="UTF-8" standalone="no" ?>
<gpx xmlns="http://www.topografix.com/GPX/1/1" xmlns:xsi="http://www.w3.org/2001/XMLSchema-instance" xsi:schemaLocation="http://www.topografix.com/GPX/1/1 http://www.topografix.com/GPX/1/1/gpx.xsd" version="1.1" creator="VisuGPX - https://www.visugpx.com">
  <metadata>
    <name>Les Planches en Arbois,cascade des tuffes</name>
  </metadata>
  <trk>
    <name><![CDATA[Les Planches en Arbois,cascade des tuffes_1]]></name>
    <extensions>
      <line xmlns="http://www.topografix.com/GPX/gpx_style/0/2">
        <color>0000FF</color>
        <width>4</width>
      </line>
    </extensions>
    <trkseg>
      <trkpt lat="46.88337" lon="5.80382">
        <ele>328.8</ele>
        <time>2021-08-29T12:04:38Z</time>
      </trkpt>
      <trkpt lat="46.88335" lon="5.80376">
        <ele>326.4</ele>
        <time>2021-08-29T12:04:49Z</time>
      </trkpt>
      <trkpt lat="46.88333" lon="5.80369">
        <ele>325.8</ele>
        <time>2021-08-29T12:04:52Z</time>
      </trkpt>
      <trkpt lat="46.88328" lon="5.80369">
        <ele>323.3</ele>
        <time>2021-08-29T12:04:59Z</time>
      </trkpt>
      <trkpt lat="46.88323" lon="5.80367">
        <ele>323.9</ele>
        <time>2021-08-29T12:05:05Z</time>
      </trkpt>
      <trkpt lat="46.88319" lon="5.80368">
        <ele>324.3</ele>
        <time>2021-08-29T12:05:10Z</time>
      </trkpt>
      <trkpt lat="46.88315" lon="5.80364">
        <ele>324</ele>
        <time>2021-08-29T12:05:16Z</time>
      </trkpt>
      <trkpt lat="46.8831" lon="5.80361">
        <ele>324.1</ele>
        <time>2021-08-29T12:05:20Z</time>
      </trkpt>
      <trkpt lat="46.88305" lon="5.8036">
        <ele>324.2</ele>
        <time>2021-08-29T12:05:24Z</time>
      </trkpt>
      <trkpt lat="46.88301" lon="5.80363">
        <ele>323.8</ele>
        <time>2021-08-29T12:05:31Z</time>
      </trkpt>
      <trkpt lat="46.88296" lon="5.80365">
        <ele>322.8</ele>
        <time>2021-08-29T12:05:40Z</time>
      </trkpt>
      <trkpt lat="46.8829" lon="5.80365">
        <ele>322.7</ele>
        <time>2021-08-29T12:05:46Z</time>
      </trkpt>
      <trkpt lat="46.88286" lon="5.80365">
        <ele>322.9</ele>
        <time>2021-08-29T12:05:51Z</time>
      </trkpt>
      <trkpt lat="46.88282" lon="5.80369">
        <ele>323.5</ele>
        <time>2021-08-29T12:05:59Z</time>
      </trkpt>
      <trkpt lat="46.88277" lon="5.80371">
        <ele>324.1</ele>
        <time>2021-08-29T12:06:06Z</time>
      </trkpt>
      <trkpt lat="46.88272" lon="5.80375">
        <ele>324.3</ele>
        <time>2021-08-29T12:06:11Z</time>
      </trkpt>
      <trkpt lat="46.88267" lon="5.80379">
        <ele>324.1</ele>
        <time>2021-08-29T12:06:15Z</time>
      </trkpt>
      <trkpt lat="46.88263" lon="5.80377">
        <ele>323.7</ele>
        <time>2021-08-29T12:06:24Z</time>
      </trkpt>
      <trkpt lat="46.88258" lon="5.80378">
        <ele>323.1</ele>
        <time>2021-08-29T12:06:29Z</time>
      </trkpt>
      <trkpt lat="46.88254" lon="5.80379">
        <ele>321.7</ele>
        <time>2021-08-29T12:06:34Z</time>
      </trkpt>
      <trkpt lat="46.88249" lon="5.8038">
        <ele>320.5</ele>
        <time>2021-08-29T12:06:39Z</time>
      </trkpt>
      <trkpt lat="46.88244" lon="5.8038">
        <ele>319.9</ele>
        <time>2021-08-29T12:06:45Z</time>
      </trkpt>
      <trkpt lat="46.8824" lon="5.80375">
        <ele>319.3</ele>
        <time>2021-08-29T12:06:50Z</time>
      </trkpt>
      <trkpt lat="46.88235" lon="5.80377">
        <ele>319</ele>
        <time>2021-08-29T12:06:54Z</time>
      </trkpt>
      <trkpt lat="46.88231" lon="5.8038">
        <ele>318.8</ele>
        <time>2021-08-29T12:06:58Z</time>
      </trkpt>
      <trkpt lat="46.88228" lon="5.80385">
        <ele>319.1</ele>
        <time>2021-08-29T12:07:02Z</time>
      </trkpt>
      <trkpt lat="46.88223" lon="5.8039">
        <ele>319.2</ele>
        <time>2021-08-29T12:07:08Z</time>
      </trkpt>
      <trkpt lat="46.88218" lon="5.80392">
        <ele>319</ele>
        <time>2021-08-29T12:07:13Z</time>
      </trkpt>
      <trkpt lat="46.88214" lon="5.80394">
        <ele>319</ele>
        <time>2021-08-29T12:07:16Z</time>
      </trkpt>
      <trkpt lat="46.88209" lon="5.80396">
        <ele>319</ele>
        <time>2021-08-29T12:07:19Z</time>
      </trkpt>
      <trkpt lat="46.88203" lon="5.80397">
        <ele>318.8</ele>
        <time>2021-08-29T12:07:23Z</time>
      </trkpt>
      <trkpt lat="46.88198" lon="5.80399">
        <ele>318.7</ele>
        <time>2021-08-29T12:07:26Z</time>
      </trkpt>
      <trkpt lat="46.88193" lon="5.80399">
        <ele>318.7</ele>
        <time>2021-08-29T12:07:29Z</time>
      </trkpt>
      <trkpt lat="46.88189" lon="5.804">
        <ele>318.7</ele>
        <time>2021-08-29T12:07:33Z</time>
      </trkpt>
      <trkpt lat="46.88185" lon="5.80404">
        <ele>319.4</ele>
        <time>2021-08-29T12:07:38Z</time>
      </trkpt>
      <trkpt lat="46.8818" lon="5.80406">
        <ele>321.8</ele>
        <time>2021-08-29T12:07:45Z</time>
      </trkpt>
      <trkpt lat="46.88175" lon="5.80404">
        <ele>321.6</ele>
        <time>2021-08-29T12:07:53Z</time>
      </trkpt>
      <trkpt lat="46.8817" lon="5.80404">
        <ele>321</ele>
        <time>2021-08-29T12:07:57Z</time>
      </trkpt>
      <trkpt lat="46.88165" lon="5.80404">
        <ele>321.6</ele>
        <time>2021-08-29T12:08:01Z</time>
      </trkpt>
      <trkpt lat="46.8816" lon="5.80407">
        <ele>322.5</ele>
        <time>2021-08-29T12:08:05Z</time>
      </trkpt>
      <trkpt lat="46.88155" lon="5.8041">
        <ele>322.9</ele>
        <time>2021-08-29T12:08:09Z</time>
      </trkpt>
      <trkpt lat="46.8815" lon="5.80412">
        <ele>322.8</ele>
        <time>2021-08-29T12:08:13Z</time>
      </trkpt>
      <trkpt lat="46.88144" lon="5.80415">
        <ele>321.9</ele>
        <time>2021-08-29T12:08:17Z</time>
      </trkpt>
      <trkpt lat="46.8814" lon="5.80417">
        <ele>320.5</ele>
        <time>2021-08-29T12:08:22Z</time>
      </trkpt>
      <trkpt lat="46.88135" lon="5.80418">
        <ele>319.6</ele>
        <time>2021-08-29T12:08:27Z</time>
      </trkpt>
      <trkpt lat="46.8813" lon="5.80421">
        <ele>319.5</ele>
        <time>2021-08-29T12:08:32Z</time>
      </trkpt>
      <trkpt lat="46.88125" lon="5.80421">
        <ele>320.4</ele>
        <time>2021-08-29T12:08:39Z</time>
      </trkpt>
      <trkpt lat="46.88121" lon="5.80423">
        <ele>320.8</ele>
        <time>2021-08-29T12:08:45Z</time>
      </trkpt>
      <trkpt lat="46.88116" lon="5.80425">
        <ele>321.3</ele>
        <time>2021-08-29T12:08:49Z</time>
      </trkpt>
      <trkpt lat="46.88111" lon="5.80425">
        <ele>321.5</ele>
        <time>2021-08-29T12:08:56Z</time>
      </trkpt>
      <trkpt lat="46.88107" lon="5.80431">
        <ele>321.6</ele>
        <time>2021-08-29T12:09:00Z</time>
      </trkpt>
      <trkpt lat="46.88103" lon="5.80436">
        <ele>321.5</ele>
        <time>2021-08-29T12:09:03Z</time>
      </trkpt>
      <trkpt lat="46.88098" lon="5.80438">
        <ele>321</ele>
        <time>2021-08-29T12:09:07Z</time>
      </trkpt>
      <trkpt lat="46.88094" lon="5.80436">
        <ele>320.9</ele>
        <time>2021-08-29T12:09:12Z</time>
      </trkpt>
      <trkpt lat="46.88089" lon="5.80434">
        <ele>320.8</ele>
        <time>2021-08-29T12:09:17Z</time>
      </trkpt>
      <trkpt lat="46.88084" lon="5.80435">
        <ele>320.9</ele>
        <time>2021-08-29T12:09:22Z</time>
      </trkpt>
      <trkpt lat="46.8808" lon="5.80437">
        <ele>321.6</ele>
        <time>2021-08-29T12:09:34Z</time>
      </trkpt>
      <trkpt lat="46.88075" lon="5.80438">
        <ele>320.9</ele>
        <time>2021-08-29T12:09:38Z</time>
      </trkpt>
      <trkpt lat="46.8807" lon="5.8044">
        <ele>320</ele>
        <time>2021-08-29T12:09:41Z</time>
      </trkpt>
      <trkpt lat="46.88066" lon="5.80442">
        <ele>318.6</ele>
        <time>2021-08-29T12:09:44Z</time>
      </trkpt>
      <trkpt lat="46.8806" lon="5.80445">
        <ele>317.1</ele>
        <time>2021-08-29T12:09:48Z</time>
      </trkpt>
      <trkpt lat="46.88057" lon="5.80449">
        <ele>315.7</ele>
        <time>2021-08-29T12:09:53Z</time>
      </trkpt>
      <trkpt lat="46.88053" lon="5.80453">
        <ele>315.3</ele>
        <time>2021-08-29T12:10:00Z</time>
      </trkpt>
      <trkpt lat="46.88049" lon="5.80457">
        <ele>315.7</ele>
        <time>2021-08-29T12:10:06Z</time>
      </trkpt>
      <trkpt lat="46.88045" lon="5.80462">
        <ele>316.2</ele>
        <time>2021-08-29T12:10:11Z</time>
      </trkpt>
      <trkpt lat="46.88041" lon="5.80464">
        <ele>317.2</ele>
        <time>2021-08-29T12:10:17Z</time>
      </trkpt>
      <trkpt lat="46.88037" lon="5.80468">
        <ele>317.9</ele>
        <time>2021-08-29T12:10:25Z</time>
      </trkpt>
      <trkpt lat="46.88035" lon="5.80475">
        <ele>318.1</ele>
        <time>2021-08-29T12:10:30Z</time>
      </trkpt>
      <trkpt lat="46.88033" lon="5.80481">
        <ele>318.4</ele>
        <time>2021-08-29T12:10:34Z</time>
      </trkpt>
      <trkpt lat="46.8803" lon="5.80487">
        <ele>318.2</ele>
        <time>2021-08-29T12:10:40Z</time>
      </trkpt>
      <trkpt lat="46.88027" lon="5.80493">
        <ele>318</ele>
        <time>2021-08-29T12:10:46Z</time>
      </trkpt>
      <trkpt lat="46.88025" lon="5.80498">
        <ele>318</ele>
        <time>2021-08-29T12:10:50Z</time>
      </trkpt>
      <trkpt lat="46.88022" lon="5.80503">
        <ele>318</ele>
        <time>2021-08-29T12:10:55Z</time>
      </trkpt>
      <trkpt lat="46.88019" lon="5.80509">
        <ele>319</ele>
        <time>2021-08-29T12:11:03Z</time>
      </trkpt>
      <trkpt lat="46.88017" lon="5.80516">
        <ele>320.2</ele>
        <time>2021-08-29T12:11:08Z</time>
      </trkpt>
      <trkpt lat="46.88015" lon="5.80522">
        <ele>321.1</ele>
        <time>2021-08-29T12:11:12Z</time>
      </trkpt>
      <trkpt lat="46.88012" lon="5.80528">
        <ele>321.7</ele>
        <time>2021-08-29T12:11:17Z</time>
      </trkpt>
      <trkpt lat="46.88009" lon="5.80534">
        <ele>321.9</ele>
        <time>2021-08-29T12:11:23Z</time>
      </trkpt>
      <trkpt lat="46.88005" lon="5.8054">
        <ele>321.9</ele>
        <time>2021-08-29T12:11:28Z</time>
      </trkpt>
      <trkpt lat="46.88001" lon="5.80544">
        <ele>321.6</ele>
        <time>2021-08-29T12:11:32Z</time>
      </trkpt>
      <trkpt lat="46.87998" lon="5.80548">
        <ele>320.9</ele>
        <time>2021-08-29T12:11:37Z</time>
      </trkpt>
      <trkpt lat="46.87993" lon="5.80552">
        <ele>320.8</ele>
        <time>2021-08-29T12:11:41Z</time>
      </trkpt>
      <trkpt lat="46.8799" lon="5.80557">
        <ele>321.1</ele>
        <time>2021-08-29T12:11:45Z</time>
      </trkpt>
      <trkpt lat="46.87987" lon="5.80562">
        <ele>321.4</ele>
        <time>2021-08-29T12:11:48Z</time>
      </trkpt>
      <trkpt lat="46.87982" lon="5.80566">
        <ele>322.3</ele>
        <time>2021-08-29T12:11:53Z</time>
      </trkpt>
      <trkpt lat="46.87978" lon="5.80569">
        <ele>323.7</ele>
        <time>2021-08-29T12:11:59Z</time>
      </trkpt>
      <trkpt lat="46.87975" lon="5.80576">
        <ele>323.9</ele>
        <time>2021-08-29T12:12:03Z</time>
      </trkpt>
      <trkpt lat="46.87973" lon="5.80582">
        <ele>323.9</ele>
        <time>2021-08-29T12:12:07Z</time>
      </trkpt>
      <trkpt lat="46.87971" lon="5.80588">
        <ele>323.7</ele>
        <time>2021-08-29T12:12:11Z</time>
      </trkpt>
      <trkpt lat="46.87968" lon="5.80594">
        <ele>323.5</ele>
        <time>2021-08-29T12:12:16Z</time>
      </trkpt>
      <trkpt lat="46.87965" lon="5.80599">
        <ele>323.5</ele>
        <time>2021-08-29T12:12:21Z</time>
      </trkpt>
      <trkpt lat="46.8796" lon="5.80603">
        <ele>323.7</ele>
        <time>2021-08-29T12:12:27Z</time>
      </trkpt>
      <trkpt lat="46.87956" lon="5.80607">
        <ele>323.4</ele>
        <time>2021-08-29T12:12:36Z</time>
      </trkpt>
      <trkpt lat="46.87952" lon="5.80612">
        <ele>323.3</ele>
        <time>2021-08-29T12:12:41Z</time>
      </trkpt>
      <trkpt lat="46.87949" lon="5.80618">
        <ele>323.4</ele>
        <time>2021-08-29T12:12:48Z</time>
      </trkpt>
      <trkpt lat="46.87945" lon="5.80621">
        <ele>324.3</ele>
        <time>2021-08-29T12:12:55Z</time>
      </trkpt>
      <trkpt lat="46.87942" lon="5.80625">
        <ele>325.1</ele>
        <time>2021-08-29T12:12:59Z</time>
      </trkpt>
      <trkpt lat="46.87937" lon="5.80628">
        <ele>325.7</ele>
        <time>2021-08-29T12:13:04Z</time>
      </trkpt>
      <trkpt lat="46.87932" lon="5.80628">
        <ele>326</ele>
        <time>2021-08-29T12:13:09Z</time>
      </trkpt>
      <trkpt lat="46.87928" lon="5.80634">
        <ele>326.1</ele>
        <time>2021-08-29T12:13:14Z</time>
      </trkpt>
      <trkpt lat="46.87923" lon="5.80637">
        <ele>325.9</ele>
        <time>2021-08-29T12:13:18Z</time>
      </trkpt>
      <trkpt lat="46.87919" lon="5.80639">
        <ele>325.3</ele>
        <time>2021-08-29T12:13:23Z</time>
      </trkpt>
      <trkpt lat="46.87913" lon="5.80639">
        <ele>325.2</ele>
        <time>2021-08-29T12:13:28Z</time>
      </trkpt>
      <trkpt lat="46.87909" lon="5.80642">
        <ele>325.4</ele>
        <time>2021-08-29T12:13:32Z</time>
      </trkpt>
      <trkpt lat="46.87906" lon="5.80648">
        <ele>324.9</ele>
        <time>2021-08-29T12:13:37Z</time>
      </trkpt>
      <trkpt lat="46.87901" lon="5.80652">
        <ele>323.9</ele>
        <time>2021-08-29T12:13:42Z</time>
      </trkpt>
      <trkpt lat="46.87895" lon="5.80652">
        <ele>323</ele>
        <time>2021-08-29T12:13:46Z</time>
      </trkpt>
      <trkpt lat="46.8789" lon="5.80652">
        <ele>322</ele>
        <time>2021-08-29T12:13:50Z</time>
      </trkpt>
      <trkpt lat="46.87885" lon="5.80651">
        <ele>321.6</ele>
        <time>2021-08-29T12:13:56Z</time>
      </trkpt>
      <trkpt lat="46.87883" lon="5.80644">
        <ele>321.8</ele>
        <time>2021-08-29T12:14:01Z</time>
      </trkpt>
      <trkpt lat="46.87882" lon="5.80637">
        <ele>321.5</ele>
        <time>2021-08-29T12:14:04Z</time>
      </trkpt>
      <trkpt lat="46.8788" lon="5.80631">
        <ele>321.3</ele>
        <time>2021-08-29T12:14:07Z</time>
      </trkpt>
      <trkpt lat="46.87878" lon="5.80625">
        <ele>321.5</ele>
        <time>2021-08-29T12:14:11Z</time>
      </trkpt>
      <trkpt lat="46.87878" lon="5.80618">
        <ele>323.4</ele>
        <time>2021-08-29T12:14:18Z</time>
      </trkpt>
      <trkpt lat="46.87876" lon="5.8061">
        <ele>324.4</ele>
        <time>2021-08-29T12:14:23Z</time>
      </trkpt>
      <trkpt lat="46.87876" lon="5.80604">
        <ele>325.1</ele>
        <time>2021-08-29T12:14:30Z</time>
      </trkpt>
      <trkpt lat="46.87877" lon="5.80595">
        <ele>323.8</ele>
        <time>2021-08-29T12:14:52Z</time>
      </trkpt>
      <trkpt lat="46.87875" lon="5.80588">
        <ele>322.8</ele>
        <time>2021-08-29T12:14:58Z</time>
      </trkpt>
      <trkpt lat="46.87874" lon="5.8058">
        <ele>322.4</ele>
        <time>2021-08-29T12:15:02Z</time>
      </trkpt>
      <trkpt lat="46.87875" lon="5.80573">
        <ele>321.6</ele>
        <time>2021-08-29T12:15:13Z</time>
      </trkpt>
      <trkpt lat="46.87874" lon="5.80566">
        <ele>321.3</ele>
        <time>2021-08-29T12:15:18Z</time>
      </trkpt>
      <trkpt lat="46.87878" lon="5.80561">
        <ele>320.1</ele>
        <time>2021-08-29T12:15:30Z</time>
      </trkpt>
      <trkpt lat="46.87875" lon="5.80553">
        <ele>319.7</ele>
        <time>2021-08-29T12:15:38Z</time>
      </trkpt>
      <trkpt lat="46.87871" lon="5.80548">
        <ele>319.4</ele>
        <time>2021-08-29T12:15:41Z</time>
      </trkpt>
      <trkpt lat="46.87874" lon="5.80555">
        <ele>321.5</ele>
        <time>2021-08-29T12:15:51Z</time>
      </trkpt>
      <trkpt lat="46.87879" lon="5.80555">
        <ele>323.6</ele>
        <time>2021-08-29T12:15:57Z</time>
      </trkpt>
      <trkpt lat="46.87878" lon="5.80562">
        <ele>326.3</ele>
        <time>2021-08-29T12:16:19Z</time>
      </trkpt>
      <trkpt lat="46.8788" lon="5.80568">
        <ele>326.1</ele>
        <time>2021-08-29T12:16:24Z</time>
      </trkpt>
      <trkpt lat="46.87877" lon="5.80563">
        <ele>324.2</ele>
        <time>2021-08-29T12:16:48Z</time>
      </trkpt>
      <trkpt lat="46.87873" lon="5.80559">
        <ele>324.6</ele>
        <time>2021-08-29T12:16:59Z</time>
      </trkpt>
      <trkpt lat="46.87872" lon="5.80553">
        <ele>325</ele>
        <time>2021-08-29T12:17:03Z</time>
      </trkpt>
      <trkpt lat="46.87872" lon="5.80546">
        <ele>325.4</ele>
        <time>2021-08-29T12:17:09Z</time>
      </trkpt>
      <trkpt lat="46.87871" lon="5.80539">
        <ele>326.7</ele>
        <time>2021-08-29T12:17:17Z</time>
      </trkpt>
      <trkpt lat="46.87871" lon="5.80533">
        <ele>326.7</ele>
        <time>2021-08-29T12:17:23Z</time>
      </trkpt>
      <trkpt lat="46.87866" lon="5.80534">
        <ele>323</ele>
        <time>2021-08-29T12:17:53Z</time>
      </trkpt>
      <trkpt lat="46.87861" lon="5.80535">
        <ele>322.1</ele>
        <time>2021-08-29T12:18:04Z</time>
      </trkpt>
      <trkpt lat="46.87856" lon="5.80537">
        <ele>322.7</ele>
        <time>2021-08-29T12:18:08Z</time>
      </trkpt>
      <trkpt lat="46.87852" lon="5.80541">
        <ele>323.7</ele>
        <time>2021-08-29T12:18:12Z</time>
      </trkpt>
      <trkpt lat="46.87846" lon="5.80543">
        <ele>324.8</ele>
        <time>2021-08-29T12:18:16Z</time>
      </trkpt>
      <trkpt lat="46.87841" lon="5.80547">
        <ele>325.9</ele>
        <time>2021-08-29T12:18:21Z</time>
      </trkpt>
      <trkpt lat="46.87836" lon="5.80551">
        <ele>326.4</ele>
        <time>2021-08-29T12:18:25Z</time>
      </trkpt>
      <trkpt lat="46.87832" lon="5.80553">
        <ele>326.6</ele>
        <time>2021-08-29T12:18:28Z</time>
      </trkpt>
      <trkpt lat="46.87827" lon="5.80555">
        <ele>326.3</ele>
        <time>2021-08-29T12:18:32Z</time>
      </trkpt>
      <trkpt lat="46.87822" lon="5.80556">
        <ele>326.2</ele>
        <time>2021-08-29T12:18:39Z</time>
      </trkpt>
      <trkpt lat="46.87817" lon="5.80559">
        <ele>326.8</ele>
        <time>2021-08-29T12:18:44Z</time>
      </trkpt>
      <trkpt lat="46.87812" lon="5.80559">
        <ele>327.2</ele>
        <time>2021-08-29T12:18:49Z</time>
      </trkpt>
      <trkpt lat="46.87808" lon="5.80561">
        <ele>327.3</ele>
        <time>2021-08-29T12:18:54Z</time>
      </trkpt>
      <trkpt lat="46.87803" lon="5.80561">
        <ele>326.7</ele>
        <time>2021-08-29T12:18:58Z</time>
      </trkpt>
      <trkpt lat="46.87798" lon="5.80563">
        <ele>326.1</ele>
        <time>2021-08-29T12:19:01Z</time>
      </trkpt>
      <trkpt lat="46.87794" lon="5.80565">
        <ele>325.4</ele>
        <time>2021-08-29T12:19:05Z</time>
      </trkpt>
      <trkpt lat="46.87788" lon="5.80565">
        <ele>324</ele>
        <time>2021-08-29T12:19:10Z</time>
      </trkpt>
      <trkpt lat="46.87783" lon="5.80566">
        <ele>322.6</ele>
        <time>2021-08-29T12:19:15Z</time>
      </trkpt>
      <trkpt lat="46.87779" lon="5.80568">
        <ele>322.1</ele>
        <time>2021-08-29T12:19:19Z</time>
      </trkpt>
      <trkpt lat="46.87774" lon="5.80569">
        <ele>321.9</ele>
        <time>2021-08-29T12:19:24Z</time>
      </trkpt>
      <trkpt lat="46.87769" lon="5.8057">
        <ele>321.8</ele>
        <time>2021-08-29T12:19:28Z</time>
      </trkpt>
      <trkpt lat="46.87763" lon="5.80571">
        <ele>321.2</ele>
        <time>2021-08-29T12:19:32Z</time>
      </trkpt>
      <trkpt lat="46.87758" lon="5.80572">
        <ele>320.2</ele>
        <time>2021-08-29T12:19:36Z</time>
      </trkpt>
      <trkpt lat="46.87753" lon="5.80573">
        <ele>319.5</ele>
        <time>2021-08-29T12:19:40Z</time>
      </trkpt>
      <trkpt lat="46.87748" lon="5.80571">
        <ele>319.2</ele>
        <time>2021-08-29T12:19:45Z</time>
      </trkpt>
      <trkpt lat="46.87743" lon="5.80573">
        <ele>319.5</ele>
        <time>2021-08-29T12:19:50Z</time>
      </trkpt>
      <trkpt lat="46.87738" lon="5.80574">
        <ele>320</ele>
        <time>2021-08-29T12:19:54Z</time>
      </trkpt>
      <trkpt lat="46.87733" lon="5.80572">
        <ele>320.7</ele>
        <time>2021-08-29T12:19:58Z</time>
      </trkpt>
      <trkpt lat="46.87728" lon="5.80572">
        <ele>322</ele>
        <time>2021-08-29T12:20:04Z</time>
      </trkpt>
      <trkpt lat="46.87723" lon="5.80575">
        <ele>322.8</ele>
        <time>2021-08-29T12:20:15Z</time>
      </trkpt>
      <trkpt lat="46.87717" lon="5.80571">
        <ele>322.5</ele>
        <time>2021-08-29T12:20:18Z</time>
      </trkpt>
      <trkpt lat="46.87712" lon="5.80566">
        <ele>322.2</ele>
        <time>2021-08-29T12:20:21Z</time>
      </trkpt>
      <trkpt lat="46.87707" lon="5.80563">
        <ele>322.2</ele>
        <time>2021-08-29T12:20:24Z</time>
      </trkpt>
      <trkpt lat="46.87702" lon="5.80563">
        <ele>322.3</ele>
        <time>2021-08-29T12:20:27Z</time>
      </trkpt>
      <trkpt lat="46.87697" lon="5.80563">
        <ele>322.8</ele>
        <time>2021-08-29T12:20:31Z</time>
      </trkpt>
      <trkpt lat="46.87693" lon="5.80562">
        <ele>323</ele>
        <time>2021-08-29T12:20:35Z</time>
      </trkpt>
      <trkpt lat="46.87688" lon="5.80561">
        <ele>322.5</ele>
        <time>2021-08-29T12:20:41Z</time>
      </trkpt>
      <trkpt lat="46.87682" lon="5.80562">
        <ele>321.7</ele>
        <time>2021-08-29T12:20:46Z</time>
      </trkpt>
      <trkpt lat="46.87678" lon="5.80564">
        <ele>320.4</ele>
        <time>2021-08-29T12:20:52Z</time>
      </trkpt>
      <trkpt lat="46.87672" lon="5.80561">
        <ele>317.5</ele>
        <time>2021-08-29T12:21:02Z</time>
      </trkpt>
      <trkpt lat="46.87668" lon="5.80557">
        <ele>317.1</ele>
        <time>2021-08-29T12:21:05Z</time>
      </trkpt>
      <trkpt lat="46.87662" lon="5.80552">
        <ele>316.6</ele>
        <time>2021-08-29T12:21:08Z</time>
      </trkpt>
      <trkpt lat="46.87657" lon="5.80551">
        <ele>316.3</ele>
        <time>2021-08-29T12:21:11Z</time>
      </trkpt>
      <trkpt lat="46.87652" lon="5.80551">
        <ele>316.5</ele>
        <time>2021-08-29T12:21:16Z</time>
      </trkpt>
      <trkpt lat="46.87648" lon="5.80546">
        <ele>317.3</ele>
        <time>2021-08-29T12:21:21Z</time>
      </trkpt>
      <trkpt lat="46.87644" lon="5.80543">
        <ele>318.6</ele>
        <time>2021-08-29T12:21:26Z</time>
      </trkpt>
      <trkpt lat="46.87641" lon="5.80536">
        <ele>319.5</ele>
        <time>2021-08-29T12:21:31Z</time>
      </trkpt>
      <trkpt lat="46.87641" lon="5.80529">
        <ele>319.7</ele>
        <time>2021-08-29T12:21:38Z</time>
      </trkpt>
      <trkpt lat="46.87639" lon="5.80522">
        <ele>320</ele>
        <time>2021-08-29T12:21:43Z</time>
      </trkpt>
      <trkpt lat="46.87636" lon="5.80517">
        <ele>320.8</ele>
        <time>2021-08-29T12:21:50Z</time>
      </trkpt>
      <trkpt lat="46.87633" lon="5.80511">
        <ele>321.4</ele>
        <time>2021-08-29T12:21:54Z</time>
      </trkpt>
      <trkpt lat="46.87633" lon="5.80504">
        <ele>326.4</ele>
        <time>2021-08-29T12:22:18Z</time>
      </trkpt>
      <trkpt lat="46.87633" lon="5.80497">
        <ele>327.4</ele>
        <time>2021-08-29T12:22:23Z</time>
      </trkpt>
      <trkpt lat="46.87632" lon="5.8049">
        <ele>328.3</ele>
        <time>2021-08-29T12:22:28Z</time>
      </trkpt>
      <trkpt lat="46.8763" lon="5.80484">
        <ele>329.3</ele>
        <time>2021-08-29T12:22:33Z</time>
      </trkpt>
      <trkpt lat="46.87631" lon="5.80476">
        <ele>330.1</ele>
        <time>2021-08-29T12:22:38Z</time>
      </trkpt>
      <trkpt lat="46.8763" lon="5.80469">
        <ele>331.2</ele>
        <time>2021-08-29T12:22:47Z</time>
      </trkpt>
      <trkpt lat="46.87625" lon="5.80466">
        <ele>331.2</ele>
        <time>2021-08-29T12:22:53Z</time>
      </trkpt>
      <trkpt lat="46.87621" lon="5.80462">
        <ele>330.6</ele>
        <time>2021-08-29T12:22:59Z</time>
      </trkpt>
      <trkpt lat="46.87617" lon="5.80459">
        <ele>330</ele>
        <time>2021-08-29T12:23:03Z</time>
      </trkpt>
      <trkpt lat="46.87612" lon="5.80458">
        <ele>329</ele>
        <time>2021-08-29T12:23:07Z</time>
      </trkpt>
      <trkpt lat="46.87607" lon="5.80457">
        <ele>328.2</ele>
        <time>2021-08-29T12:23:12Z</time>
      </trkpt>
      <trkpt lat="46.87602" lon="5.80455">
        <ele>328.1</ele>
        <time>2021-08-29T12:23:16Z</time>
      </trkpt>
      <trkpt lat="46.87598" lon="5.80453">
        <ele>328.3</ele>
        <time>2021-08-29T12:23:21Z</time>
      </trkpt>
      <trkpt lat="46.87593" lon="5.80454">
        <ele>329.2</ele>
        <time>2021-08-29T12:23:25Z</time>
      </trkpt>
      <trkpt lat="46.87588" lon="5.80453">
        <ele>330</ele>
        <time>2021-08-29T12:23:32Z</time>
      </trkpt>
      <trkpt lat="46.87583" lon="5.8045">
        <ele>331.2</ele>
        <time>2021-08-29T12:23:38Z</time>
      </trkpt>
      <trkpt lat="46.87579" lon="5.80445">
        <ele>333</ele>
        <time>2021-08-29T12:23:42Z</time>
      </trkpt>
      <trkpt lat="46.87575" lon="5.80443">
        <ele>335</ele>
        <time>2021-08-29T12:23:46Z</time>
      </trkpt>
      <trkpt lat="46.8757" lon="5.80445">
        <ele>336.6</ele>
        <time>2021-08-29T12:23:50Z</time>
      </trkpt>
      <trkpt lat="46.87565" lon="5.80442">
        <ele>337.4</ele>
        <time>2021-08-29T12:23:57Z</time>
      </trkpt>
      <trkpt lat="46.87564" lon="5.80435">
        <ele>337.1</ele>
        <time>2021-08-29T12:24:02Z</time>
      </trkpt>
      <trkpt lat="46.87562" lon="5.80429">
        <ele>337</ele>
        <time>2021-08-29T12:24:05Z</time>
      </trkpt>
      <trkpt lat="46.87559" lon="5.80423">
        <ele>336.8</ele>
        <time>2021-08-29T12:24:09Z</time>
      </trkpt>
      <trkpt lat="46.87555" lon="5.80418">
        <ele>336.9</ele>
        <time>2021-08-29T12:24:13Z</time>
      </trkpt>
      <trkpt lat="46.87552" lon="5.80412">
        <ele>337.6</ele>
        <time>2021-08-29T12:24:19Z</time>
      </trkpt>
      <trkpt lat="46.87548" lon="5.80407">
        <ele>337.9</ele>
        <time>2021-08-29T12:24:24Z</time>
      </trkpt>
      <trkpt lat="46.87545" lon="5.80402">
        <ele>337.8</ele>
        <time>2021-08-29T12:24:30Z</time>
      </trkpt>
      <trkpt lat="46.87543" lon="5.80396">
        <ele>337.3</ele>
        <time>2021-08-29T12:24:38Z</time>
      </trkpt>
      <trkpt lat="46.8754" lon="5.80391">
        <ele>337.1</ele>
        <time>2021-08-29T12:24:43Z</time>
      </trkpt>
      <trkpt lat="46.87536" lon="5.80386">
        <ele>337.1</ele>
        <time>2021-08-29T12:24:48Z</time>
      </trkpt>
      <trkpt lat="46.87533" lon="5.80381">
        <ele>337.2</ele>
        <time>2021-08-29T12:24:51Z</time>
      </trkpt>
      <trkpt lat="46.8753" lon="5.80376">
        <ele>337.4</ele>
        <time>2021-08-29T12:24:54Z</time>
      </trkpt>
      <trkpt lat="46.87526" lon="5.8037">
        <ele>337.7</ele>
        <time>2021-08-29T12:24:58Z</time>
      </trkpt>
      <trkpt lat="46.87522" lon="5.80366">
        <ele>337.7</ele>
        <time>2021-08-29T12:25:02Z</time>
      </trkpt>
      <trkpt lat="46.87518" lon="5.80363">
        <ele>337.5</ele>
        <time>2021-08-29T12:25:07Z</time>
      </trkpt>
      <trkpt lat="46.87513" lon="5.80361">
        <ele>337.8</ele>
        <time>2021-08-29T12:25:12Z</time>
      </trkpt>
      <trkpt lat="46.87507" lon="5.80359">
        <ele>338.1</ele>
        <time>2021-08-29T12:25:20Z</time>
      </trkpt>
      <trkpt lat="46.87503" lon="5.80356">
        <ele>337.5</ele>
        <time>2021-08-29T12:25:26Z</time>
      </trkpt>
      <trkpt lat="46.875" lon="5.80352">
        <ele>336.4</ele>
        <time>2021-08-29T12:25:31Z</time>
      </trkpt>
      <trkpt lat="46.87494" lon="5.80349">
        <ele>335.3</ele>
        <time>2021-08-29T12:25:37Z</time>
      </trkpt>
      <trkpt lat="46.87489" lon="5.80349">
        <ele>334.8</ele>
        <time>2021-08-29T12:25:41Z</time>
      </trkpt>
      <trkpt lat="46.87485" lon="5.80347">
        <ele>334.7</ele>
        <time>2021-08-29T12:25:44Z</time>
      </trkpt>
      <trkpt lat="46.8748" lon="5.80345">
        <ele>334.8</ele>
        <time>2021-08-29T12:25:48Z</time>
      </trkpt>
      <trkpt lat="46.87475" lon="5.80341">
        <ele>335.2</ele>
        <time>2021-08-29T12:25:52Z</time>
      </trkpt>
      <trkpt lat="46.87471" lon="5.80339">
        <ele>335.7</ele>
        <time>2021-08-29T12:25:56Z</time>
      </trkpt>
      <trkpt lat="46.87466" lon="5.80338">
        <ele>335.9</ele>
        <time>2021-08-29T12:26:01Z</time>
      </trkpt>
      <trkpt lat="46.87461" lon="5.80334">
        <ele>336.6</ele>
        <time>2021-08-29T12:26:06Z</time>
      </trkpt>
      <trkpt lat="46.87456" lon="5.80332">
        <ele>337.5</ele>
        <time>2021-08-29T12:26:10Z</time>
      </trkpt>
      <trkpt lat="46.87452" lon="5.80333">
        <ele>339.1</ele>
        <time>2021-08-29T12:26:17Z</time>
      </trkpt>
      <trkpt lat="46.87446" lon="5.80332">
        <ele>340.1</ele>
        <time>2021-08-29T12:26:24Z</time>
      </trkpt>
      <trkpt lat="46.87442" lon="5.8033">
        <ele>340.2</ele>
        <time>2021-08-29T12:26:29Z</time>
      </trkpt>
      <trkpt lat="46.87437" lon="5.80329">
        <ele>340.3</ele>
        <time>2021-08-29T12:26:35Z</time>
      </trkpt>
      <trkpt lat="46.87432" lon="5.80326">
        <ele>340.6</ele>
        <time>2021-08-29T12:26:42Z</time>
      </trkpt>
      <trkpt lat="46.87428" lon="5.80324">
        <ele>340.5</ele>
        <time>2021-08-29T12:26:47Z</time>
      </trkpt>
      <trkpt lat="46.87424" lon="5.8032">
        <ele>339.7</ele>
        <time>2021-08-29T12:26:52Z</time>
      </trkpt>
      <trkpt lat="46.8742" lon="5.80317">
        <ele>338.6</ele>
        <time>2021-08-29T12:26:59Z</time>
      </trkpt>
      <trkpt lat="46.87415" lon="5.80313">
        <ele>338.1</ele>
        <time>2021-08-29T12:27:05Z</time>
      </trkpt>
      <trkpt lat="46.8741" lon="5.8031">
        <ele>338.2</ele>
        <time>2021-08-29T12:27:10Z</time>
      </trkpt>
      <trkpt lat="46.87406" lon="5.80308">
        <ele>338.2</ele>
        <time>2021-08-29T12:27:14Z</time>
      </trkpt>
      <trkpt lat="46.87402" lon="5.80305">
        <ele>338.1</ele>
        <time>2021-08-29T12:27:19Z</time>
      </trkpt>
      <trkpt lat="46.874" lon="5.80298">
        <ele>337.9</ele>
        <time>2021-08-29T12:27:26Z</time>
      </trkpt>
      <trkpt lat="46.874" lon="5.80292">
        <ele>339.2</ele>
        <time>2021-08-29T12:27:40Z</time>
      </trkpt>
      <trkpt lat="46.87412" lon="5.80292">
        <ele>341.1</ele>
        <time>2021-08-29T12:27:52Z</time>
      </trkpt>
      <trkpt lat="46.87417" lon="5.8029">
        <ele>342.1</ele>
        <time>2021-08-29T12:27:55Z</time>
      </trkpt>
      <trkpt lat="46.87411" lon="5.80291">
        <ele>342.8</ele>
        <time>2021-08-29T12:27:58Z</time>
      </trkpt>
      <trkpt lat="46.87407" lon="5.80293">
        <ele>343.1</ele>
        <time>2021-08-29T12:28:01Z</time>
      </trkpt>
      <trkpt lat="46.87402" lon="5.80295">
        <ele>344.2</ele>
        <time>2021-08-29T12:28:05Z</time>
      </trkpt>
      <trkpt lat="46.87397" lon="5.80297">
        <ele>345.1</ele>
        <time>2021-08-29T12:28:10Z</time>
      </trkpt>
      <trkpt lat="46.87392" lon="5.80298">
        <ele>345.5</ele>
        <time>2021-08-29T12:28:14Z</time>
      </trkpt>
      <trkpt lat="46.87388" lon="5.80301">
        <ele>345.1</ele>
        <time>2021-08-29T12:28:17Z</time>
      </trkpt>
      <trkpt lat="46.87384" lon="5.80302">
        <ele>344.5</ele>
        <time>2021-08-29T12:28:21Z</time>
      </trkpt>
      <trkpt lat="46.87378" lon="5.803">
        <ele>344</ele>
        <time>2021-08-29T12:28:26Z</time>
      </trkpt>
      <trkpt lat="46.87374" lon="5.80295">
        <ele>343.3</ele>
        <time>2021-08-29T12:28:31Z</time>
      </trkpt>
      <trkpt lat="46.87369" lon="5.80293">
        <ele>342.1</ele>
        <time>2021-08-29T12:28:36Z</time>
      </trkpt>
      <trkpt lat="46.87364" lon="5.8029">
        <ele>340.9</ele>
        <time>2021-08-29T12:28:40Z</time>
      </trkpt>
      <trkpt lat="46.87358" lon="5.80289">
        <ele>340</ele>
        <time>2021-08-29T12:28:44Z</time>
      </trkpt>
      <trkpt lat="46.87354" lon="5.80286">
        <ele>339.4</ele>
        <time>2021-08-29T12:28:48Z</time>
      </trkpt>
      <trkpt lat="46.8735" lon="5.8028">
        <ele>339.2</ele>
        <time>2021-08-29T12:28:52Z</time>
      </trkpt>
      <trkpt lat="46.87347" lon="5.80274">
        <ele>339</ele>
        <time>2021-08-29T12:28:56Z</time>
      </trkpt>
      <trkpt lat="46.87343" lon="5.8027">
        <ele>338.2</ele>
        <time>2021-08-29T12:29:02Z</time>
      </trkpt>
      <trkpt lat="46.87339" lon="5.80266">
        <ele>337.2</ele>
        <time>2021-08-29T12:29:12Z</time>
      </trkpt>
      <trkpt lat="46.87334" lon="5.80264">
        <ele>336.5</ele>
        <time>2021-08-29T12:29:16Z</time>
      </trkpt>
      <trkpt lat="46.87332" lon="5.80258">
        <ele>336.2</ele>
        <time>2021-08-29T12:29:19Z</time>
      </trkpt>
      <trkpt lat="46.87329" lon="5.80251">
        <ele>335.7</ele>
        <time>2021-08-29T12:29:23Z</time>
      </trkpt>
      <trkpt lat="46.87324" lon="5.80248">
        <ele>335.2</ele>
        <time>2021-08-29T12:29:28Z</time>
      </trkpt>
      <trkpt lat="46.87321" lon="5.80241">
        <ele>334.7</ele>
        <time>2021-08-29T12:29:33Z</time>
      </trkpt>
      <trkpt lat="46.87318" lon="5.80235">
        <ele>334.1</ele>
        <time>2021-08-29T12:29:37Z</time>
      </trkpt>
      <trkpt lat="46.87313" lon="5.80234">
        <ele>333.9</ele>
        <time>2021-08-29T12:29:42Z</time>
      </trkpt>
      <trkpt lat="46.87308" lon="5.80236">
        <ele>334.1</ele>
        <time>2021-08-29T12:29:46Z</time>
      </trkpt>
      <trkpt lat="46.87304" lon="5.8024">
        <ele>334.5</ele>
        <time>2021-08-29T12:29:50Z</time>
      </trkpt>
      <trkpt lat="46.873" lon="5.80244">
        <ele>336.1</ele>
        <time>2021-08-29T12:29:57Z</time>
      </trkpt>
      <trkpt lat="46.87295" lon="5.8025">
        <ele>337.4</ele>
        <time>2021-08-29T12:30:02Z</time>
      </trkpt>
      <trkpt lat="46.87291" lon="5.80253">
        <ele>338.5</ele>
        <time>2021-08-29T12:30:06Z</time>
      </trkpt>
      <trkpt lat="46.87287" lon="5.80256">
        <ele>339.1</ele>
        <time>2021-08-29T12:30:09Z</time>
      </trkpt>
      <trkpt lat="46.87281" lon="5.80259">
        <ele>339.5</ele>
        <time>2021-08-29T12:30:13Z</time>
      </trkpt>
      <trkpt lat="46.87278" lon="5.80263">
        <ele>340.4</ele>
        <time>2021-08-29T12:30:19Z</time>
      </trkpt>
      <trkpt lat="46.87276" lon="5.80269">
        <ele>341.7</ele>
        <time>2021-08-29T12:30:28Z</time>
      </trkpt>
      <trkpt lat="46.87272" lon="5.80275">
        <ele>343.2</ele>
        <time>2021-08-29T12:30:33Z</time>
      </trkpt>
      <trkpt lat="46.87267" lon="5.80279">
        <ele>344.5</ele>
        <time>2021-08-29T12:30:38Z</time>
      </trkpt>
      <trkpt lat="46.87262" lon="5.8028">
        <ele>344.8</ele>
        <time>2021-08-29T12:30:43Z</time>
      </trkpt>
      <trkpt lat="46.87257" lon="5.80281">
        <ele>344.4</ele>
        <time>2021-08-29T12:30:48Z</time>
      </trkpt>
      <trkpt lat="46.87253" lon="5.80287">
        <ele>344.3</ele>
        <time>2021-08-29T12:30:52Z</time>
      </trkpt>
      <trkpt lat="46.87251" lon="5.80295">
        <ele>344</ele>
        <time>2021-08-29T12:30:57Z</time>
      </trkpt>
      <trkpt lat="46.87252" lon="5.80302">
        <ele>344.3</ele>
        <time>2021-08-29T12:31:03Z</time>
      </trkpt>
      <trkpt lat="46.87254" lon="5.80308">
        <ele>345.2</ele>
        <time>2021-08-29T12:31:07Z</time>
      </trkpt>
      <trkpt lat="46.87255" lon="5.80315">
        <ele>346.9</ele>
        <time>2021-08-29T12:31:13Z</time>
      </trkpt>
      <trkpt lat="46.87254" lon="5.80322">
        <ele>348.1</ele>
        <time>2021-08-29T12:31:18Z</time>
      </trkpt>
      <trkpt lat="46.87254" lon="5.80329">
        <ele>349</ele>
        <time>2021-08-29T12:31:21Z</time>
      </trkpt>
      <trkpt lat="46.87254" lon="5.80336">
        <ele>349.8</ele>
        <time>2021-08-29T12:31:25Z</time>
      </trkpt>
      <trkpt lat="46.87252" lon="5.80343">
        <ele>350.4</ele>
        <time>2021-08-29T12:31:29Z</time>
      </trkpt>
      <trkpt lat="46.87249" lon="5.80349">
        <ele>351.1</ele>
        <time>2021-08-29T12:31:35Z</time>
      </trkpt>
      <trkpt lat="46.87247" lon="5.80356">
        <ele>352.1</ele>
        <time>2021-08-29T12:31:40Z</time>
      </trkpt>
      <trkpt lat="46.87244" lon="5.80363">
        <ele>352</ele>
        <time>2021-08-29T12:31:45Z</time>
      </trkpt>
      <trkpt lat="46.87241" lon="5.80369">
        <ele>351.7</ele>
        <time>2021-08-29T12:31:48Z</time>
      </trkpt>
      <trkpt lat="46.87238" lon="5.80375">
        <ele>351.7</ele>
        <time>2021-08-29T12:31:51Z</time>
      </trkpt>
      <trkpt lat="46.87234" lon="5.8038">
        <ele>351.7</ele>
        <time>2021-08-29T12:31:55Z</time>
      </trkpt>
      <trkpt lat="46.87229" lon="5.80382">
        <ele>351.6</ele>
        <time>2021-08-29T12:32:00Z</time>
      </trkpt>
      <trkpt lat="46.87224" lon="5.80383">
        <ele>351.7</ele>
        <time>2021-08-29T12:32:04Z</time>
      </trkpt>
      <trkpt lat="46.87219" lon="5.80384">
        <ele>351.9</ele>
        <time>2021-08-29T12:32:08Z</time>
      </trkpt>
      <trkpt lat="46.87214" lon="5.80386">
        <ele>352.2</ele>
        <time>2021-08-29T12:32:13Z</time>
      </trkpt>
      <trkpt lat="46.87209" lon="5.80387">
        <ele>351.8</ele>
        <time>2021-08-29T12:32:18Z</time>
      </trkpt>
      <trkpt lat="46.87204" lon="5.80387">
        <ele>351.2</ele>
        <time>2021-08-29T12:32:22Z</time>
      </trkpt>
      <trkpt lat="46.872" lon="5.80387">
        <ele>349.9</ele>
        <time>2021-08-29T12:32:29Z</time>
      </trkpt>
      <trkpt lat="46.87194" lon="5.80386">
        <ele>349.7</ele>
        <time>2021-08-29T12:32:33Z</time>
      </trkpt>
      <trkpt lat="46.87189" lon="5.80387">
        <ele>349.5</ele>
        <time>2021-08-29T12:32:38Z</time>
      </trkpt>
      <trkpt lat="46.87184" lon="5.80391">
        <ele>349.9</ele>
        <time>2021-08-29T12:32:43Z</time>
      </trkpt>
      <trkpt lat="46.87181" lon="5.80396">
        <ele>350.9</ele>
        <time>2021-08-29T12:32:47Z</time>
      </trkpt>
      <trkpt lat="46.87178" lon="5.80402">
        <ele>351.8</ele>
        <time>2021-08-29T12:32:52Z</time>
      </trkpt>
      <trkpt lat="46.87175" lon="5.80409">
        <ele>352.6</ele>
        <time>2021-08-29T12:32:57Z</time>
      </trkpt>
      <trkpt lat="46.87173" lon="5.80415">
        <ele>353.2</ele>
        <time>2021-08-29T12:33:01Z</time>
      </trkpt>
      <trkpt lat="46.8717" lon="5.80421">
        <ele>354</ele>
        <time>2021-08-29T12:33:07Z</time>
      </trkpt>
      <trkpt lat="46.87172" lon="5.80415">
        <ele>354.8</ele>
        <time>2021-08-29T12:33:19Z</time>
      </trkpt>
      <trkpt lat="46.87169" lon="5.80421">
        <ele>355.3</ele>
        <time>2021-08-29T12:33:27Z</time>
      </trkpt>
      <trkpt lat="46.87167" lon="5.80427">
        <ele>355.5</ele>
        <time>2021-08-29T12:33:30Z</time>
      </trkpt>
      <trkpt lat="46.87163" lon="5.80433">
        <ele>355.5</ele>
        <time>2021-08-29T12:33:33Z</time>
      </trkpt>
      <trkpt lat="46.87159" lon="5.80437">
        <ele>355.4</ele>
        <time>2021-08-29T12:33:37Z</time>
      </trkpt>
      <trkpt lat="46.87155" lon="5.8044">
        <ele>354.5</ele>
        <time>2021-08-29T12:33:43Z</time>
      </trkpt>
      <trkpt lat="46.8715" lon="5.80443">
        <ele>352.8</ele>
        <time>2021-08-29T12:33:51Z</time>
      </trkpt>
      <trkpt lat="46.87147" lon="5.80448">
        <ele>352.4</ele>
        <time>2021-08-29T12:33:54Z</time>
      </trkpt>
      <trkpt lat="46.87144" lon="5.80454">
        <ele>352.3</ele>
        <time>2021-08-29T12:33:58Z</time>
      </trkpt>
      <trkpt lat="46.87142" lon="5.8046">
        <ele>352.9</ele>
        <time>2021-08-29T12:34:03Z</time>
      </trkpt>
      <trkpt lat="46.87138" lon="5.80465">
        <ele>354.2</ele>
        <time>2021-08-29T12:34:11Z</time>
      </trkpt>
      <trkpt lat="46.87133" lon="5.80465">
        <ele>353.1</ele>
        <time>2021-08-29T12:34:24Z</time>
      </trkpt>
      <trkpt lat="46.87129" lon="5.80469">
        <ele>352.7</ele>
        <time>2021-08-29T12:34:31Z</time>
      </trkpt>
      <trkpt lat="46.87125" lon="5.80473">
        <ele>352.6</ele>
        <time>2021-08-29T12:34:35Z</time>
      </trkpt>
      <trkpt lat="46.87121" lon="5.80475">
        <ele>352.5</ele>
        <time>2021-08-29T12:34:41Z</time>
      </trkpt>
      <trkpt lat="46.87117" lon="5.8048">
        <ele>352.8</ele>
        <time>2021-08-29T12:34:48Z</time>
      </trkpt>
      <trkpt lat="46.87115" lon="5.80486">
        <ele>353.1</ele>
        <time>2021-08-29T12:34:54Z</time>
      </trkpt>
      <trkpt lat="46.8711" lon="5.80485">
        <ele>354</ele>
        <time>2021-08-29T12:34:59Z</time>
      </trkpt>
      <trkpt lat="46.87105" lon="5.80487">
        <ele>355.4</ele>
        <time>2021-08-29T12:35:08Z</time>
      </trkpt>
      <trkpt lat="46.871" lon="5.80489">
        <ele>355.4</ele>
        <time>2021-08-29T12:35:15Z</time>
      </trkpt>
      <trkpt lat="46.87097" lon="5.80494">
        <ele>356.6</ele>
        <time>2021-08-29T12:35:25Z</time>
      </trkpt>
      <trkpt lat="46.87094" lon="5.805">
        <ele>359.3</ele>
        <time>2021-08-29T12:35:44Z</time>
      </trkpt>
      <trkpt lat="46.87089" lon="5.805">
        <ele>360</ele>
        <time>2021-08-29T12:36:00Z</time>
      </trkpt>
      <trkpt lat="46.87084" lon="5.80503">
        <ele>360.3</ele>
        <time>2021-08-29T12:36:03Z</time>
      </trkpt>
      <trkpt lat="46.87086" lon="5.80501">
        <ele>359.5</ele>
        <time>2021-08-29T12:36:12Z</time>
      </trkpt>
      <trkpt lat="46.87086" lon="5.80509">
        <ele>360.7</ele>
        <time>2021-08-29T12:36:28Z</time>
      </trkpt>
      <trkpt lat="46.87084" lon="5.80518">
        <ele>362</ele>
        <time>2021-08-29T12:36:31Z</time>
      </trkpt>
      <trkpt lat="46.87083" lon="5.80525">
        <ele>363.6</ele>
        <time>2021-08-29T12:36:35Z</time>
      </trkpt>
      <trkpt lat="46.87083" lon="5.80519">
        <ele>364.3</ele>
        <time>2021-08-29T12:36:54Z</time>
      </trkpt>
      <trkpt lat="46.87084" lon="5.80526">
        <ele>365.7</ele>
        <time>2021-08-29T12:37:06Z</time>
      </trkpt>
      <trkpt lat="46.87087" lon="5.80532">
        <ele>366</ele>
        <time>2021-08-29T12:37:11Z</time>
      </trkpt>
      <trkpt lat="46.87049" lon="5.80552">
        <ele>366.5</ele>
        <time>2021-08-29T12:37:25Z</time>
      </trkpt>
      <trkpt lat="46.87046" lon="5.80544">
        <ele>366.4</ele>
        <time>2021-08-29T12:37:28Z</time>
      </trkpt>
      <trkpt lat="46.87049" lon="5.80537">
        <ele>366.1</ele>
        <time>2021-08-29T12:37:31Z</time>
      </trkpt>
      <trkpt lat="46.87054" lon="5.80532">
        <ele>365.8</ele>
        <time>2021-08-29T12:37:34Z</time>
      </trkpt>
      <trkpt lat="46.87059" lon="5.80533">
        <ele>365.6</ele>
        <time>2021-08-29T12:37:37Z</time>
      </trkpt>
      <trkpt lat="46.87064" lon="5.80536">
        <ele>365.5</ele>
        <time>2021-08-29T12:37:42Z</time>
      </trkpt>
      <trkpt lat="46.87071" lon="5.80543">
        <ele>364.9</ele>
        <time>2021-08-29T12:37:45Z</time>
      </trkpt>
      <trkpt lat="46.87079" lon="5.80552">
        <ele>364</ele>
        <time>2021-08-29T12:37:48Z</time>
      </trkpt>
      <trkpt lat="46.87084" lon="5.80549">
        <ele>362.3</ele>
        <time>2021-08-29T12:37:51Z</time>
      </trkpt>
      <trkpt lat="46.87087" lon="5.80541">
        <ele>355.8</ele>
        <time>2021-08-29T12:38:10Z</time>
      </trkpt>
      <trkpt lat="46.8709" lon="5.80535">
        <ele>351.8</ele>
        <time>2021-08-29T12:38:14Z</time>
      </trkpt>
      <trkpt lat="46.87085" lon="5.80532">
        <ele>347.9</ele>
        <time>2021-08-29T12:38:29Z</time>
      </trkpt>
      <trkpt lat="46.87083" lon="5.80526">
        <ele>347.8</ele>
        <time>2021-08-29T12:38:33Z</time>
      </trkpt>
      <trkpt lat="46.87087" lon="5.80528">
        <ele>349</ele>
        <time>2021-08-29T12:38:44Z</time>
      </trkpt>
      <trkpt lat="46.87091" lon="5.80533">
        <ele>351</ele>
        <time>2021-08-29T12:38:48Z</time>
      </trkpt>
      <trkpt lat="46.8709" lon="5.8054">
        <ele>353.4</ele>
        <time>2021-08-29T12:38:56Z</time>
      </trkpt>
      <trkpt lat="46.87095" lon="5.80534">
        <ele>355.7</ele>
        <time>2021-08-29T12:39:07Z</time>
      </trkpt>
      <trkpt lat="46.871" lon="5.80535">
        <ele>357.6</ele>
        <time>2021-08-29T12:39:11Z</time>
      </trkpt>
      <trkpt lat="46.87104" lon="5.8054">
        <ele>359.7</ele>
        <time>2021-08-29T12:39:16Z</time>
      </trkpt>
      <trkpt lat="46.87103" lon="5.80547">
        <ele>361</ele>
        <time>2021-08-29T12:39:20Z</time>
      </trkpt>
      <trkpt lat="46.87103" lon="5.80553">
        <ele>361.4</ele>
        <time>2021-08-29T12:39:24Z</time>
      </trkpt>
      <trkpt lat="46.87103" lon="5.80561">
        <ele>361.7</ele>
        <time>2021-08-29T12:39:29Z</time>
      </trkpt>
      <trkpt lat="46.87105" lon="5.80568">
        <ele>361.1</ele>
        <time>2021-08-29T12:39:38Z</time>
      </trkpt>
      <trkpt lat="46.87108" lon="5.80572">
        <ele>360.3</ele>
        <time>2021-08-29T12:39:46Z</time>
      </trkpt>
      <trkpt lat="46.87113" lon="5.80574">
        <ele>360.3</ele>
        <time>2021-08-29T12:39:52Z</time>
      </trkpt>
      <trkpt lat="46.87113" lon="5.80581">
        <ele>359.6</ele>
        <time>2021-08-29T12:39:59Z</time>
      </trkpt>
      <trkpt lat="46.87111" lon="5.80587">
        <ele>358.9</ele>
        <time>2021-08-29T12:40:03Z</time>
      </trkpt>
      <trkpt lat="46.87108" lon="5.80593">
        <ele>358.3</ele>
        <time>2021-08-29T12:40:07Z</time>
      </trkpt>
      <trkpt lat="46.87105" lon="5.80599">
        <ele>357.6</ele>
        <time>2021-08-29T12:40:11Z</time>
      </trkpt>
      <trkpt lat="46.87104" lon="5.80606">
        <ele>357.2</ele>
        <time>2021-08-29T12:40:16Z</time>
      </trkpt>
      <trkpt lat="46.87102" lon="5.80613">
        <ele>356.8</ele>
        <time>2021-08-29T12:40:20Z</time>
      </trkpt>
      <trkpt lat="46.871" lon="5.80619">
        <ele>356.8</ele>
        <time>2021-08-29T12:40:25Z</time>
      </trkpt>
      <trkpt lat="46.87103" lon="5.80625">
        <ele>356.7</ele>
        <time>2021-08-29T12:40:34Z</time>
      </trkpt>
      <trkpt lat="46.87104" lon="5.80633">
        <ele>356.4</ele>
        <time>2021-08-29T12:40:39Z</time>
      </trkpt>
      <trkpt lat="46.87104" lon="5.80641">
        <ele>356.1</ele>
        <time>2021-08-29T12:40:44Z</time>
      </trkpt>
      <trkpt lat="46.87107" lon="5.80647">
        <ele>355.3</ele>
        <time>2021-08-29T12:40:51Z</time>
      </trkpt>
      <trkpt lat="46.87111" lon="5.8065">
        <ele>354.9</ele>
        <time>2021-08-29T12:40:55Z</time>
      </trkpt>
      <trkpt lat="46.87108" lon="5.80655">
        <ele>354.3</ele>
        <time>2021-08-29T12:41:07Z</time>
      </trkpt>
      <trkpt lat="46.87103" lon="5.80656">
        <ele>354.7</ele>
        <time>2021-08-29T12:41:11Z</time>
      </trkpt>
      <trkpt lat="46.87099" lon="5.80659">
        <ele>355.6</ele>
        <time>2021-08-29T12:41:18Z</time>
      </trkpt>
      <trkpt lat="46.87095" lon="5.80655">
        <ele>358</ele>
        <time>2021-08-29T12:41:36Z</time>
      </trkpt>
      <trkpt lat="46.8709" lon="5.80653">
        <ele>358.5</ele>
        <time>2021-08-29T12:41:40Z</time>
      </trkpt>
      <trkpt lat="46.87086" lon="5.80651">
        <ele>358.7</ele>
        <time>2021-08-29T12:41:45Z</time>
      </trkpt>
      <trkpt lat="46.87082" lon="5.80652">
        <ele>357.4</ele>
        <time>2021-08-29T12:41:53Z</time>
      </trkpt>
      <trkpt lat="46.87078" lon="5.80656">
        <ele>354.8</ele>
        <time>2021-08-29T12:42:12Z</time>
      </trkpt>
      <trkpt lat="46.87073" lon="5.8066">
        <ele>354.5</ele>
        <time>2021-08-29T12:42:17Z</time>
      </trkpt>
      <trkpt lat="46.87069" lon="5.80657">
        <ele>353.7</ele>
        <time>2021-08-29T12:42:21Z</time>
      </trkpt>
      <trkpt lat="46.87064" lon="5.80653">
        <ele>352.8</ele>
        <time>2021-08-29T12:42:26Z</time>
      </trkpt>
      <trkpt lat="46.8706" lon="5.80649">
        <ele>351.6</ele>
        <time>2021-08-29T12:42:32Z</time>
      </trkpt>
      <trkpt lat="46.87055" lon="5.80648">
        <ele>351</ele>
        <time>2021-08-29T12:42:36Z</time>
      </trkpt>
      <trkpt lat="46.8705" lon="5.80649">
        <ele>351.2</ele>
        <time>2021-08-29T12:42:42Z</time>
      </trkpt>
      <trkpt lat="46.87047" lon="5.80652">
        <ele>352.8</ele>
        <time>2021-08-29T12:42:47Z</time>
      </trkpt>
      <trkpt lat="46.87043" lon="5.80657">
        <ele>354.8</ele>
        <time>2021-08-29T12:42:53Z</time>
      </trkpt>
      <trkpt lat="46.87044" lon="5.80665">
        <ele>356.2</ele>
        <time>2021-08-29T12:43:01Z</time>
      </trkpt>
      <trkpt lat="46.87044" lon="5.80671">
        <ele>356.6</ele>
        <time>2021-08-29T12:43:04Z</time>
      </trkpt>
      <trkpt lat="46.87042" lon="5.80678">
        <ele>356.9</ele>
        <time>2021-08-29T12:43:07Z</time>
      </trkpt>
      <trkpt lat="46.8704" lon="5.80684">
        <ele>357.7</ele>
        <time>2021-08-29T12:43:12Z</time>
      </trkpt>
      <trkpt lat="46.87041" lon="5.80691">
        <ele>358.4</ele>
        <time>2021-08-29T12:43:18Z</time>
      </trkpt>
      <trkpt lat="46.87042" lon="5.80699">
        <ele>358.5</ele>
        <time>2021-08-29T12:43:23Z</time>
      </trkpt>
      <trkpt lat="46.8704" lon="5.80706">
        <ele>359.4</ele>
        <time>2021-08-29T12:43:29Z</time>
      </trkpt>
      <trkpt lat="46.87036" lon="5.80711">
        <ele>361</ele>
        <time>2021-08-29T12:43:34Z</time>
      </trkpt>
      <trkpt lat="46.87032" lon="5.8071">
        <ele>362.3</ele>
        <time>2021-08-29T12:43:39Z</time>
      </trkpt>
      <trkpt lat="46.87027" lon="5.80709">
        <ele>363.7</ele>
        <time>2021-08-29T12:43:44Z</time>
      </trkpt>
      <trkpt lat="46.87024" lon="5.80714">
        <ele>365.5</ele>
        <time>2021-08-29T12:43:54Z</time>
      </trkpt>
      <trkpt lat="46.87023" lon="5.80722">
        <ele>365.8</ele>
        <time>2021-08-29T12:43:58Z</time>
      </trkpt>
      <trkpt lat="46.87025" lon="5.80729">
        <ele>366.1</ele>
        <time>2021-08-29T12:44:05Z</time>
      </trkpt>
      <trkpt lat="46.87022" lon="5.80735">
        <ele>366.5</ele>
        <time>2021-08-29T12:44:10Z</time>
      </trkpt>
      <trkpt lat="46.87018" lon="5.80739">
        <ele>366.7</ele>
        <time>2021-08-29T12:44:14Z</time>
      </trkpt>
      <trkpt lat="46.87018" lon="5.80747">
        <ele>366.4</ele>
        <time>2021-08-29T12:44:20Z</time>
      </trkpt>
      <trkpt lat="46.87019" lon="5.8074">
        <ele>365.3</ele>
        <time>2021-08-29T12:44:37Z</time>
      </trkpt>
      <trkpt lat="46.87014" lon="5.80742">
        <ele>363.9</ele>
        <time>2021-08-29T12:44:43Z</time>
      </trkpt>
      <trkpt lat="46.87011" lon="5.80737">
        <ele>363.1</ele>
        <time>2021-08-29T12:44:48Z</time>
      </trkpt>
      <trkpt lat="46.87006" lon="5.80735">
        <ele>361.9</ele>
        <time>2021-08-29T12:44:53Z</time>
      </trkpt>
      <trkpt lat="46.87001" lon="5.80734">
        <ele>360.5</ele>
        <time>2021-08-29T12:44:59Z</time>
      </trkpt>
      <trkpt lat="46.86997" lon="5.80735">
        <ele>360.1</ele>
        <time>2021-08-29T12:45:03Z</time>
      </trkpt>
      <trkpt lat="46.86992" lon="5.80738">
        <ele>360.1</ele>
        <time>2021-08-29T12:45:07Z</time>
      </trkpt>
      <trkpt lat="46.86988" lon="5.80741">
        <ele>360.7</ele>
        <time>2021-08-29T12:45:10Z</time>
      </trkpt>
      <trkpt lat="46.86986" lon="5.80747">
        <ele>362.1</ele>
        <time>2021-08-29T12:45:15Z</time>
      </trkpt>
      <trkpt lat="46.86984" lon="5.80754">
        <ele>363.6</ele>
        <time>2021-08-29T12:45:24Z</time>
      </trkpt>
      <trkpt lat="46.86979" lon="5.80758">
        <ele>363.9</ele>
        <time>2021-08-29T12:45:30Z</time>
      </trkpt>
      <trkpt lat="46.86976" lon="5.80764">
        <ele>364</ele>
        <time>2021-08-29T12:45:34Z</time>
      </trkpt>
      <trkpt lat="46.86972" lon="5.80767">
        <ele>364</ele>
        <time>2021-08-29T12:45:37Z</time>
      </trkpt>
      <trkpt lat="46.86967" lon="5.80767">
        <ele>364.4</ele>
        <time>2021-08-29T12:45:41Z</time>
      </trkpt>
      <trkpt lat="46.86962" lon="5.80766">
        <ele>364.4</ele>
        <time>2021-08-29T12:45:45Z</time>
      </trkpt>
      <trkpt lat="46.86958" lon="5.80763">
        <ele>363.8</ele>
        <time>2021-08-29T12:45:51Z</time>
      </trkpt>
      <trkpt lat="46.86952" lon="5.80763">
        <ele>363.1</ele>
        <time>2021-08-29T12:46:02Z</time>
      </trkpt>
      <trkpt lat="46.86956" lon="5.80759">
        <ele>361.8</ele>
        <time>2021-08-29T12:46:18Z</time>
      </trkpt>
      <trkpt lat="46.86951" lon="5.80758">
        <ele>362.8</ele>
        <time>2021-08-29T12:46:28Z</time>
      </trkpt>
      <trkpt lat="46.86947" lon="5.80763">
        <ele>363.6</ele>
        <time>2021-08-29T12:46:35Z</time>
      </trkpt>
      <trkpt lat="46.8695" lon="5.80768">
        <ele>367.9</ele>
        <time>2021-08-29T12:46:48Z</time>
      </trkpt>
      <trkpt lat="46.86945" lon="5.80768">
        <ele>369.5</ele>
        <time>2021-08-29T12:46:55Z</time>
      </trkpt>
      <trkpt lat="46.86947" lon="5.80761">
        <ele>370.4</ele>
        <time>2021-08-29T12:47:04Z</time>
      </trkpt>
      <trkpt lat="46.86947" lon="5.80768">
        <ele>370.6</ele>
        <time>2021-08-29T12:47:14Z</time>
      </trkpt>
      <trkpt lat="46.86944" lon="5.80772">
        <ele>370.8</ele>
        <time>2021-08-29T12:47:22Z</time>
      </trkpt>
      <trkpt lat="46.86945" lon="5.80764">
        <ele>370.8</ele>
        <time>2021-08-29T12:47:34Z</time>
      </trkpt>
      <trkpt lat="46.86949" lon="5.80759">
        <ele>371</ele>
        <time>2021-08-29T12:47:40Z</time>
      </trkpt>
      <trkpt lat="46.86949" lon="5.80752">
        <ele>371.1</ele>
        <time>2021-08-29T12:47:47Z</time>
      </trkpt>
      <trkpt lat="46.86945" lon="5.80758">
        <ele>373.2</ele>
        <time>2021-08-29T12:48:04Z</time>
      </trkpt>
      <trkpt lat="46.86943" lon="5.80764">
        <ele>373.6</ele>
        <time>2021-08-29T12:48:08Z</time>
      </trkpt>
      <trkpt lat="46.86947" lon="5.8077">
        <ele>374</ele>
        <time>2021-08-29T12:48:12Z</time>
      </trkpt>
      <trkpt lat="46.86952" lon="5.80773">
        <ele>374.5</ele>
        <time>2021-08-29T12:48:16Z</time>
      </trkpt>
      <trkpt lat="46.86957" lon="5.80775">
        <ele>375.8</ele>
        <time>2021-08-29T12:48:19Z</time>
      </trkpt>
      <trkpt lat="46.86962" lon="5.80777">
        <ele>377.5</ele>
        <time>2021-08-29T12:48:23Z</time>
      </trkpt>
      <trkpt lat="46.86967" lon="5.80776">
        <ele>379</ele>
        <time>2021-08-29T12:48:27Z</time>
      </trkpt>
      <trkpt lat="46.86963" lon="5.80773">
        <ele>381.4</ele>
        <time>2021-08-29T12:48:41Z</time>
      </trkpt>
      <trkpt lat="46.86958" lon="5.80772">
        <ele>381.7</ele>
        <time>2021-08-29T12:48:47Z</time>
      </trkpt>
      <trkpt lat="46.86954" lon="5.80766">
        <ele>384.6</ele>
        <time>2021-08-29T12:49:08Z</time>
      </trkpt>
      <trkpt lat="46.86961" lon="5.80773">
        <ele>384.4</ele>
        <time>2021-08-29T12:49:11Z</time>
      </trkpt>
      <trkpt lat="46.86958" lon="5.80778">
        <ele>383.2</ele>
        <time>2021-08-29T12:49:18Z</time>
      </trkpt>
      <trkpt lat="46.86953" lon="5.80771">
        <ele>381</ele>
        <time>2021-08-29T12:49:29Z</time>
      </trkpt>
      <trkpt lat="46.86948" lon="5.80768">
        <ele>381.1</ele>
        <time>2021-08-29T12:49:33Z</time>
      </trkpt>
      <trkpt lat="46.86945" lon="5.80771">
        <ele>381</ele>
        <time>2021-08-29T12:49:54Z</time>
      </trkpt>
      <trkpt lat="46.86944" lon="5.80778">
        <ele>379.3</ele>
        <time>2021-08-29T12:50:05Z</time>
      </trkpt>
      <trkpt lat="46.86949" lon="5.80777">
        <ele>379</ele>
        <time>2021-08-29T12:50:17Z</time>
      </trkpt>
      <trkpt lat="46.86954" lon="5.80778">
        <ele>379.2</ele>
        <time>2021-08-29T12:50:21Z</time>
      </trkpt>
      <trkpt lat="46.8695" lon="5.80774">
        <ele>379.2</ele>
        <time>2021-08-29T12:50:29Z</time>
      </trkpt>
      <trkpt lat="46.86944" lon="5.80777">
        <ele>377.3</ele>
        <time>2021-08-29T12:50:45Z</time>
      </trkpt>
      <trkpt lat="46.86941" lon="5.80783">
        <ele>376.8</ele>
        <time>2021-08-29T12:50:50Z</time>
      </trkpt>
      <trkpt lat="46.86946" lon="5.80788">
        <ele>376.2</ele>
        <time>2021-08-29T12:50:56Z</time>
      </trkpt>
      <trkpt lat="46.8695" lon="5.80789">
        <ele>376.7</ele>
        <time>2021-08-29T12:51:01Z</time>
      </trkpt>
      <trkpt lat="46.86955" lon="5.80792">
        <ele>382.6</ele>
        <time>2021-08-29T12:51:32Z</time>
      </trkpt>
      <trkpt lat="46.86951" lon="5.80794">
        <ele>385.7</ele>
        <time>2021-08-29T12:51:47Z</time>
      </trkpt>
      <trkpt lat="46.86946" lon="5.80793">
        <ele>384.4</ele>
        <time>2021-08-29T12:52:00Z</time>
      </trkpt>
      <trkpt lat="46.86945" lon="5.80785">
        <ele>383.1</ele>
        <time>2021-08-29T12:52:12Z</time>
      </trkpt>
      <trkpt lat="46.86948" lon="5.80791">
        <ele>380.9</ele>
        <time>2021-08-29T12:52:24Z</time>
      </trkpt>
      <trkpt lat="46.86953" lon="5.80788">
        <ele>380.3</ele>
        <time>2021-08-29T12:52:29Z</time>
      </trkpt>
      <trkpt lat="46.86959" lon="5.80785">
        <ele>379.9</ele>
        <time>2021-08-29T12:52:33Z</time>
      </trkpt>
      <trkpt lat="46.86962" lon="5.80779">
        <ele>377.4</ele>
        <time>2021-08-29T12:52:46Z</time>
      </trkpt>
      <trkpt lat="46.86958" lon="5.80784">
        <ele>375.9</ele>
        <time>2021-08-29T12:52:54Z</time>
      </trkpt>
      <trkpt lat="46.86964" lon="5.80783">
        <ele>375.4</ele>
        <time>2021-08-29T12:53:03Z</time>
      </trkpt>
      <trkpt lat="46.8697" lon="5.80784">
        <ele>375.6</ele>
        <time>2021-08-29T12:53:07Z</time>
      </trkpt>
      <trkpt lat="46.86973" lon="5.8079">
        <ele>375.2</ele>
        <time>2021-08-29T12:53:12Z</time>
      </trkpt>
      <trkpt lat="46.86976" lon="5.80797">
        <ele>374.6</ele>
        <time>2021-08-29T12:53:15Z</time>
      </trkpt>
      <trkpt lat="46.8698" lon="5.80803">
        <ele>373.9</ele>
        <time>2021-08-29T12:53:18Z</time>
      </trkpt>
      <trkpt lat="46.86986" lon="5.80806">
        <ele>373.1</ele>
        <time>2021-08-29T12:53:21Z</time>
      </trkpt>
      <trkpt lat="46.86991" lon="5.80802">
        <ele>372.1</ele>
        <time>2021-08-29T12:53:31Z</time>
      </trkpt>
      <trkpt lat="46.86996" lon="5.80802">
        <ele>372.2</ele>
        <time>2021-08-29T12:53:35Z</time>
      </trkpt>
      <trkpt lat="46.87" lon="5.80802">
        <ele>372.5</ele>
        <time>2021-08-29T12:53:43Z</time>
      </trkpt>
      <trkpt lat="46.87003" lon="5.80795">
        <ele>371.5</ele>
        <time>2021-08-29T12:53:48Z</time>
      </trkpt>
      <trkpt lat="46.87007" lon="5.80791">
        <ele>370.9</ele>
        <time>2021-08-29T12:53:53Z</time>
      </trkpt>
      <trkpt lat="46.87009" lon="5.80783">
        <ele>369.5</ele>
        <time>2021-08-29T12:54:06Z</time>
      </trkpt>
      <trkpt lat="46.8701" lon="5.80791">
        <ele>368.3</ele>
        <time>2021-08-29T12:54:16Z</time>
      </trkpt>
      <trkpt lat="46.87011" lon="5.80799">
        <ele>367.9</ele>
        <time>2021-08-29T12:54:20Z</time>
      </trkpt>
      <trkpt lat="46.87016" lon="5.808">
        <ele>367.5</ele>
        <time>2021-08-29T12:54:24Z</time>
      </trkpt>
      <trkpt lat="46.8702" lon="5.80795">
        <ele>365.2</ele>
        <time>2021-08-29T12:54:36Z</time>
      </trkpt>
      <trkpt lat="46.87024" lon="5.80794">
        <ele>364.3</ele>
        <time>2021-08-29T12:54:40Z</time>
      </trkpt>
      <trkpt lat="46.87029" lon="5.80795">
        <ele>364.2</ele>
        <time>2021-08-29T12:54:44Z</time>
      </trkpt>
      <trkpt lat="46.87035" lon="5.80796">
        <ele>364.4</ele>
        <time>2021-08-29T12:54:48Z</time>
      </trkpt>
      <trkpt lat="46.8704" lon="5.80795">
        <ele>365</ele>
        <time>2021-08-29T12:54:53Z</time>
      </trkpt>
      <trkpt lat="46.87045" lon="5.80793">
        <ele>365.7</ele>
        <time>2021-08-29T12:54:58Z</time>
      </trkpt>
      <trkpt lat="46.87049" lon="5.80787">
        <ele>365.9</ele>
        <time>2021-08-29T12:55:02Z</time>
      </trkpt>
      <trkpt lat="46.87051" lon="5.80782">
        <ele>364.5</ele>
        <time>2021-08-29T12:55:16Z</time>
      </trkpt>
      <trkpt lat="46.87051" lon="5.80774">
        <ele>365.1</ele>
        <time>2021-08-29T12:55:26Z</time>
      </trkpt>
      <trkpt lat="46.8705" lon="5.80766">
        <ele>365.3</ele>
        <time>2021-08-29T12:55:30Z</time>
      </trkpt>
      <trkpt lat="46.87049" lon="5.80758">
        <ele>365.2</ele>
        <time>2021-08-29T12:55:34Z</time>
      </trkpt>
      <trkpt lat="46.8705" lon="5.8075">
        <ele>364.7</ele>
        <time>2021-08-29T12:55:38Z</time>
      </trkpt>
      <trkpt lat="46.8705" lon="5.80742">
        <ele>363.7</ele>
        <time>2021-08-29T12:55:43Z</time>
      </trkpt>
      <trkpt lat="46.87045" lon="5.80744">
        <ele>362</ele>
        <time>2021-08-29T12:55:52Z</time>
      </trkpt>
      <trkpt lat="46.8705" lon="5.80738">
        <ele>360.5</ele>
        <time>2021-08-29T12:56:18Z</time>
      </trkpt>
      <trkpt lat="46.87055" lon="5.80736">
        <ele>360.8</ele>
        <time>2021-08-29T12:56:22Z</time>
      </trkpt>
      <trkpt lat="46.87059" lon="5.8073">
        <ele>361</ele>
        <time>2021-08-29T12:56:26Z</time>
      </trkpt>
      <trkpt lat="46.87062" lon="5.80723">
        <ele>361</ele>
        <time>2021-08-29T12:56:30Z</time>
      </trkpt>
      <trkpt lat="46.87066" lon="5.8072">
        <ele>361.3</ele>
        <time>2021-08-29T12:56:35Z</time>
      </trkpt>
      <trkpt lat="46.8707" lon="5.80716">
        <ele>361.3</ele>
        <time>2021-08-29T12:56:41Z</time>
      </trkpt>
      <trkpt lat="46.87065" lon="5.80716">
        <ele>359.4</ele>
        <time>2021-08-29T12:56:55Z</time>
      </trkpt>
      <trkpt lat="46.8707" lon="5.80716">
        <ele>359.4</ele>
        <time>2021-08-29T12:57:04Z</time>
      </trkpt>
      <trkpt lat="46.87075" lon="5.80715">
        <ele>359.6</ele>
        <time>2021-08-29T12:57:08Z</time>
      </trkpt>
      <trkpt lat="46.8708" lon="5.80715">
        <ele>359.4</ele>
        <time>2021-08-29T12:57:13Z</time>
      </trkpt>
      <trkpt lat="46.87085" lon="5.80715">
        <ele>359.3</ele>
        <time>2021-08-29T12:57:18Z</time>
      </trkpt>
      <trkpt lat="46.8709" lon="5.80714">
        <ele>359.7</ele>
        <time>2021-08-29T12:57:23Z</time>
      </trkpt>
      <trkpt lat="46.87095" lon="5.80713">
        <ele>359.9</ele>
        <time>2021-08-29T12:57:27Z</time>
      </trkpt>
      <trkpt lat="46.87101" lon="5.80709">
        <ele>360.1</ele>
        <time>2021-08-29T12:57:31Z</time>
      </trkpt>
      <trkpt lat="46.87106" lon="5.80706">
        <ele>360.4</ele>
        <time>2021-08-29T12:57:36Z</time>
      </trkpt>
      <trkpt lat="46.8711" lon="5.80703">
        <ele>360.6</ele>
        <time>2021-08-29T12:57:42Z</time>
      </trkpt>
      <trkpt lat="46.87116" lon="5.80702">
        <ele>360.1</ele>
        <time>2021-08-29T12:57:46Z</time>
      </trkpt>
      <trkpt lat="46.8712" lon="5.80699">
        <ele>357.7</ele>
        <time>2021-08-29T12:57:57Z</time>
      </trkpt>
      <trkpt lat="46.87123" lon="5.80691">
        <ele>357.4</ele>
        <time>2021-08-29T12:58:02Z</time>
      </trkpt>
      <trkpt lat="46.87124" lon="5.80685">
        <ele>357.4</ele>
        <time>2021-08-29T12:58:06Z</time>
      </trkpt>
      <trkpt lat="46.87127" lon="5.8068">
        <ele>357.5</ele>
        <time>2021-08-29T12:58:10Z</time>
      </trkpt>
      <trkpt lat="46.87131" lon="5.80675">
        <ele>357.6</ele>
        <time>2021-08-29T12:58:14Z</time>
      </trkpt>
      <trkpt lat="46.87133" lon="5.80669">
        <ele>357.2</ele>
        <time>2021-08-29T12:58:20Z</time>
      </trkpt>
      <trkpt lat="46.87133" lon="5.80661">
        <ele>356.4</ele>
        <time>2021-08-29T12:58:26Z</time>
      </trkpt>
      <trkpt lat="46.87133" lon="5.80653">
        <ele>356</ele>
        <time>2021-08-29T12:58:32Z</time>
      </trkpt>
      <trkpt lat="46.87132" lon="5.80646">
        <ele>355.9</ele>
        <time>2021-08-29T12:58:36Z</time>
      </trkpt>
      <trkpt lat="46.87129" lon="5.80641">
        <ele>356.1</ele>
        <time>2021-08-29T12:58:41Z</time>
      </trkpt>
      <trkpt lat="46.87128" lon="5.80633">
        <ele>356.7</ele>
        <time>2021-08-29T12:58:47Z</time>
      </trkpt>
      <trkpt lat="46.87127" lon="5.80624">
        <ele>357.1</ele>
        <time>2021-08-29T12:58:51Z</time>
      </trkpt>
      <trkpt lat="46.87128" lon="5.80617">
        <ele>357.1</ele>
        <time>2021-08-29T12:58:55Z</time>
      </trkpt>
      <trkpt lat="46.87128" lon="5.80609">
        <ele>356.6</ele>
        <time>2021-08-29T12:58:59Z</time>
      </trkpt>
      <trkpt lat="46.87128" lon="5.80602">
        <ele>356.1</ele>
        <time>2021-08-29T12:59:03Z</time>
      </trkpt>
      <trkpt lat="46.87125" lon="5.80597">
        <ele>355.5</ele>
        <time>2021-08-29T12:59:09Z</time>
      </trkpt>
      <trkpt lat="46.87126" lon="5.80591">
        <ele>355.9</ele>
        <time>2021-08-29T12:59:19Z</time>
      </trkpt>
      <trkpt lat="46.87132" lon="5.80588">
        <ele>355.8</ele>
        <time>2021-08-29T12:59:42Z</time>
      </trkpt>
      <trkpt lat="46.87136" lon="5.80586">
        <ele>355.7</ele>
        <time>2021-08-29T12:59:46Z</time>
      </trkpt>
      <trkpt lat="46.87141" lon="5.80586">
        <ele>355.1</ele>
        <time>2021-08-29T12:59:50Z</time>
      </trkpt>
      <trkpt lat="46.87146" lon="5.80584">
        <ele>353.5</ele>
        <time>2021-08-29T12:59:57Z</time>
      </trkpt>
      <trkpt lat="46.8715" lon="5.80579">
        <ele>353.3</ele>
        <time>2021-08-29T13:00:01Z</time>
      </trkpt>
      <trkpt lat="46.87154" lon="5.80576">
        <ele>353.5</ele>
        <time>2021-08-29T13:00:04Z</time>
      </trkpt>
      <trkpt lat="46.87159" lon="5.80578">
        <ele>354.2</ele>
        <time>2021-08-29T13:00:09Z</time>
      </trkpt>
      <trkpt lat="46.87161" lon="5.80583">
        <ele>355.1</ele>
        <time>2021-08-29T13:00:13Z</time>
      </trkpt>
      <trkpt lat="46.87165" lon="5.80578">
        <ele>358.8</ele>
        <time>2021-08-29T13:00:38Z</time>
      </trkpt>
      <trkpt lat="46.87168" lon="5.80572">
        <ele>358.7</ele>
        <time>2021-08-29T13:00:43Z</time>
      </trkpt>
      <trkpt lat="46.87169" lon="5.80565">
        <ele>357.6</ele>
        <time>2021-08-29T13:00:49Z</time>
      </trkpt>
      <trkpt lat="46.87173" lon="5.8056">
        <ele>354.6</ele>
        <time>2021-08-29T13:01:04Z</time>
      </trkpt>
      <trkpt lat="46.87177" lon="5.80556">
        <ele>354.5</ele>
        <time>2021-08-29T13:01:12Z</time>
      </trkpt>
      <trkpt lat="46.87181" lon="5.80557">
        <ele>353.3</ele>
        <time>2021-08-29T13:01:24Z</time>
      </trkpt>
      <trkpt lat="46.87179" lon="5.80564">
        <ele>353.5</ele>
        <time>2021-08-29T13:01:29Z</time>
      </trkpt>
      <trkpt lat="46.87175" lon="5.80569">
        <ele>353.8</ele>
        <time>2021-08-29T13:01:32Z</time>
      </trkpt>
      <trkpt lat="46.87177" lon="5.80576">
        <ele>354.9</ele>
        <time>2021-08-29T13:01:41Z</time>
      </trkpt>
      <trkpt lat="46.8718" lon="5.80581">
        <ele>355.5</ele>
        <time>2021-08-29T13:01:46Z</time>
      </trkpt>
      <trkpt lat="46.87175" lon="5.80579">
        <ele>355.6</ele>
        <time>2021-08-29T13:01:53Z</time>
      </trkpt>
      <trkpt lat="46.8717" lon="5.80578">
        <ele>355.5</ele>
        <time>2021-08-29T13:01:56Z</time>
      </trkpt>
      <trkpt lat="46.87166" lon="5.80576">
        <ele>355.2</ele>
        <time>2021-08-29T13:01:59Z</time>
      </trkpt>
      <trkpt lat="46.87161" lon="5.80576">
        <ele>355</ele>
        <time>2021-08-29T13:02:04Z</time>
      </trkpt>
      <trkpt lat="46.87157" lon="5.80579">
        <ele>355.3</ele>
        <time>2021-08-29T13:02:16Z</time>
      </trkpt>
      <trkpt lat="46.87152" lon="5.80577">
        <ele>355.6</ele>
        <time>2021-08-29T13:02:20Z</time>
      </trkpt>
      <trkpt lat="46.87156" lon="5.80581">
        <ele>355.6</ele>
        <time>2021-08-29T13:02:29Z</time>
      </trkpt>
      <trkpt lat="46.87161" lon="5.80581">
        <ele>355.4</ele>
        <time>2021-08-29T13:02:32Z</time>
      </trkpt>
      <trkpt lat="46.87163" lon="5.80587">
        <ele>354.7</ele>
        <time>2021-08-29T13:02:40Z</time>
      </trkpt>
      <trkpt lat="46.87159" lon="5.8059">
        <ele>355.9</ele>
        <time>2021-08-29T13:03:00Z</time>
      </trkpt>
      <trkpt lat="46.87153" lon="5.80588">
        <ele>356</ele>
        <time>2021-08-29T13:03:04Z</time>
      </trkpt>
      <trkpt lat="46.87148" lon="5.80583">
        <ele>355</ele>
        <time>2021-08-29T13:03:19Z</time>
      </trkpt>
      <trkpt lat="46.87145" lon="5.80579">
        <ele>354.9</ele>
        <time>2021-08-29T13:03:23Z</time>
      </trkpt>
      <trkpt lat="46.87145" lon="5.80586">
        <ele>354.9</ele>
        <time>2021-08-29T13:03:30Z</time>
      </trkpt>
      <trkpt lat="46.87148" lon="5.80593">
        <ele>355.1</ele>
        <time>2021-08-29T13:03:34Z</time>
      </trkpt>
      <trkpt lat="46.87152" lon="5.80598">
        <ele>355.6</ele>
        <time>2021-08-29T13:03:38Z</time>
      </trkpt>
      <trkpt lat="46.87157" lon="5.806">
        <ele>356.6</ele>
        <time>2021-08-29T13:03:45Z</time>
      </trkpt>
      <trkpt lat="46.87161" lon="5.80605">
        <ele>357.3</ele>
        <time>2021-08-29T13:03:50Z</time>
      </trkpt>
      <trkpt lat="46.87166" lon="5.80608">
        <ele>357.1</ele>
        <time>2021-08-29T13:03:54Z</time>
      </trkpt>
      <trkpt lat="46.87171" lon="5.80609">
        <ele>356.9</ele>
        <time>2021-08-29T13:03:57Z</time>
      </trkpt>
      <trkpt lat="46.87177" lon="5.80612">
        <ele>357.2</ele>
        <time>2021-08-29T13:04:03Z</time>
      </trkpt>
      <trkpt lat="46.87182" lon="5.80614">
        <ele>357.8</ele>
        <time>2021-08-29T13:04:06Z</time>
      </trkpt>
      <trkpt lat="46.87186" lon="5.80619">
        <ele>358.4</ele>
        <time>2021-08-29T13:04:10Z</time>
      </trkpt>
      <trkpt lat="46.87188" lon="5.80625">
        <ele>358.9</ele>
        <time>2021-08-29T13:04:22Z</time>
      </trkpt>
      <trkpt lat="46.8719" lon="5.80632">
        <ele>359.2</ele>
        <time>2021-08-29T13:04:29Z</time>
      </trkpt>
      <trkpt lat="46.8719" lon="5.80639">
        <ele>358.2</ele>
        <time>2021-08-29T13:04:39Z</time>
      </trkpt>
      <trkpt lat="46.87191" lon="5.80646">
        <ele>357.9</ele>
        <time>2021-08-29T13:04:51Z</time>
      </trkpt>
      <trkpt lat="46.87188" lon="5.80652">
        <ele>361.1</ele>
        <time>2021-08-29T13:05:10Z</time>
      </trkpt>
      <trkpt lat="46.87189" lon="5.8066">
        <ele>362.7</ele>
        <time>2021-08-29T13:05:17Z</time>
      </trkpt>
      <trkpt lat="46.87193" lon="5.80664">
        <ele>363.7</ele>
        <time>2021-08-29T13:05:22Z</time>
      </trkpt>
      <trkpt lat="46.87197" lon="5.80667">
        <ele>364.4</ele>
        <time>2021-08-29T13:05:29Z</time>
      </trkpt>
      <trkpt lat="46.87202" lon="5.80667">
        <ele>362.3</ele>
        <time>2021-08-29T13:05:37Z</time>
      </trkpt>
      <trkpt lat="46.87207" lon="5.8067">
        <ele>361</ele>
        <time>2021-08-29T13:05:42Z</time>
      </trkpt>
      <trkpt lat="46.8721" lon="5.80675">
        <ele>360.3</ele>
        <time>2021-08-29T13:05:47Z</time>
      </trkpt>
      <trkpt lat="46.87209" lon="5.80668">
        <ele>355.5</ele>
        <time>2021-08-29T13:06:06Z</time>
      </trkpt>
      <trkpt lat="46.87212" lon="5.80663">
        <ele>354.6</ele>
        <time>2021-08-29T13:06:09Z</time>
      </trkpt>
      <trkpt lat="46.87217" lon="5.8066">
        <ele>353.9</ele>
        <time>2021-08-29T13:06:12Z</time>
      </trkpt>
      <trkpt lat="46.87221" lon="5.80658">
        <ele>353.2</ele>
        <time>2021-08-29T13:06:16Z</time>
      </trkpt>
      <trkpt lat="46.87222" lon="5.80651">
        <ele>352.1</ele>
        <time>2021-08-29T13:06:25Z</time>
      </trkpt>
      <trkpt lat="46.87226" lon="5.80647">
        <ele>351.5</ele>
        <time>2021-08-29T13:06:30Z</time>
      </trkpt>
      <trkpt lat="46.87229" lon="5.80639">
        <ele>351.1</ele>
        <time>2021-08-29T13:06:34Z</time>
      </trkpt>
      <trkpt lat="46.87231" lon="5.80632">
        <ele>351</ele>
        <time>2021-08-29T13:06:37Z</time>
      </trkpt>
      <trkpt lat="46.87233" lon="5.80627">
        <ele>351</ele>
        <time>2021-08-29T13:06:41Z</time>
      </trkpt>
      <trkpt lat="46.87237" lon="5.80623">
        <ele>351.5</ele>
        <time>2021-08-29T13:06:44Z</time>
      </trkpt>
      <trkpt lat="46.87241" lon="5.8062">
        <ele>352.6</ele>
        <time>2021-08-29T13:06:54Z</time>
      </trkpt>
      <trkpt lat="46.87237" lon="5.80617">
        <ele>352.4</ele>
        <time>2021-08-29T13:07:10Z</time>
      </trkpt>
      <trkpt lat="46.87234" lon="5.80611">
        <ele>352.6</ele>
        <time>2021-08-29T13:07:15Z</time>
      </trkpt>
      <trkpt lat="46.87231" lon="5.80605">
        <ele>353.2</ele>
        <time>2021-08-29T13:07:25Z</time>
      </trkpt>
      <trkpt lat="46.87228" lon="5.80599">
        <ele>353.3</ele>
        <time>2021-08-29T13:07:35Z</time>
      </trkpt>
      <trkpt lat="46.87225" lon="5.80593">
        <ele>352.8</ele>
        <time>2021-08-29T13:07:39Z</time>
      </trkpt>
      <trkpt lat="46.87222" lon="5.80589">
        <ele>351.9</ele>
        <time>2021-08-29T13:07:47Z</time>
      </trkpt>
      <trkpt lat="46.8722" lon="5.80583">
        <ele>351</ele>
        <time>2021-08-29T13:07:54Z</time>
      </trkpt>
      <trkpt lat="46.87218" lon="5.80574">
        <ele>350.6</ele>
        <time>2021-08-29T13:08:00Z</time>
      </trkpt>
      <trkpt lat="46.87218" lon="5.80568">
        <ele>350.7</ele>
        <time>2021-08-29T13:08:09Z</time>
      </trkpt>
      <trkpt lat="46.87216" lon="5.80562">
        <ele>351.2</ele>
        <time>2021-08-29T13:08:14Z</time>
      </trkpt>
      <trkpt lat="46.87213" lon="5.80555">
        <ele>351.7</ele>
        <time>2021-08-29T13:08:18Z</time>
      </trkpt>
      <trkpt lat="46.87209" lon="5.80548">
        <ele>352.2</ele>
        <time>2021-08-29T13:08:21Z</time>
      </trkpt>
      <trkpt lat="46.87206" lon="5.80541">
        <ele>352.5</ele>
        <time>2021-08-29T13:08:24Z</time>
      </trkpt>
      <trkpt lat="46.87203" lon="5.80534">
        <ele>352.5</ele>
        <time>2021-08-29T13:08:27Z</time>
      </trkpt>
      <trkpt lat="46.872" lon="5.80529">
        <ele>352.3</ele>
        <time>2021-08-29T13:08:30Z</time>
      </trkpt>
      <trkpt lat="46.87197" lon="5.80523">
        <ele>351.8</ele>
        <time>2021-08-29T13:08:34Z</time>
      </trkpt>
      <trkpt lat="46.87194" lon="5.80517">
        <ele>350.3</ele>
        <time>2021-08-29T13:08:41Z</time>
      </trkpt>
      <trkpt lat="46.87188" lon="5.8052">
        <ele>347.7</ele>
        <time>2021-08-29T13:08:55Z</time>
      </trkpt>
      <trkpt lat="46.87189" lon="5.80528">
        <ele>346.8</ele>
        <time>2021-08-29T13:09:00Z</time>
      </trkpt>
      <trkpt lat="46.87187" lon="5.80522">
        <ele>347.4</ele>
        <time>2021-08-29T13:09:33Z</time>
      </trkpt>
      <trkpt lat="46.87188" lon="5.80515">
        <ele>346.8</ele>
        <time>2021-08-29T13:09:38Z</time>
      </trkpt>
      <trkpt lat="46.87191" lon="5.80509">
        <ele>346.5</ele>
        <time>2021-08-29T13:09:43Z</time>
      </trkpt>
      <trkpt lat="46.8719" lon="5.80502">
        <ele>346.2</ele>
        <time>2021-08-29T13:09:50Z</time>
      </trkpt>
      <trkpt lat="46.87186" lon="5.80498">
        <ele>345.9</ele>
        <time>2021-08-29T13:09:56Z</time>
      </trkpt>
      <trkpt lat="46.87181" lon="5.80494">
        <ele>345.4</ele>
        <time>2021-08-29T13:10:05Z</time>
      </trkpt>
      <trkpt lat="46.87177" lon="5.80498">
        <ele>344</ele>
        <time>2021-08-29T13:10:12Z</time>
      </trkpt>
      <trkpt lat="46.87173" lon="5.80501">
        <ele>343.8</ele>
        <time>2021-08-29T13:10:17Z</time>
      </trkpt>
      <trkpt lat="46.87176" lon="5.80506">
        <ele>343.9</ele>
        <time>2021-08-29T13:10:24Z</time>
      </trkpt>
      <trkpt lat="46.87182" lon="5.80507">
        <ele>343.7</ele>
        <time>2021-08-29T13:10:27Z</time>
      </trkpt>
      <trkpt lat="46.87188" lon="5.80506">
        <ele>343.9</ele>
        <time>2021-08-29T13:10:31Z</time>
      </trkpt>
      <trkpt lat="46.87192" lon="5.8051">
        <ele>345.3</ele>
        <time>2021-08-29T13:10:37Z</time>
      </trkpt>
      <trkpt lat="46.87192" lon="5.80518">
        <ele>345.4</ele>
        <time>2021-08-29T13:11:08Z</time>
      </trkpt>
      <trkpt lat="46.87187" lon="5.80518">
        <ele>344.9</ele>
        <time>2021-08-29T13:11:13Z</time>
      </trkpt>
      <trkpt lat="46.8719" lon="5.80513">
        <ele>344.4</ele>
        <time>2021-08-29T13:11:24Z</time>
      </trkpt>
      <trkpt lat="46.87192" lon="5.80521">
        <ele>343.4</ele>
        <time>2021-08-29T13:12:08Z</time>
      </trkpt>
      <trkpt lat="46.87196" lon="5.80525">
        <ele>343.1</ele>
        <time>2021-08-29T13:12:40Z</time>
      </trkpt>
      <trkpt lat="46.87198" lon="5.80531">
        <ele>343.4</ele>
        <time>2021-08-29T13:12:50Z</time>
      </trkpt>
      <trkpt lat="46.87201" lon="5.80537">
        <ele>344.3</ele>
        <time>2021-08-29T13:12:58Z</time>
      </trkpt>
      <trkpt lat="46.87204" lon="5.80543">
        <ele>345.3</ele>
        <time>2021-08-29T13:13:04Z</time>
      </trkpt>
      <trkpt lat="46.87209" lon="5.80545">
        <ele>346.7</ele>
        <time>2021-08-29T13:13:11Z</time>
      </trkpt>
      <trkpt lat="46.8721" lon="5.80551">
        <ele>347.9</ele>
        <time>2021-08-29T13:13:22Z</time>
      </trkpt>
      <trkpt lat="46.87212" lon="5.80558">
        <ele>348.9</ele>
        <time>2021-08-29T13:13:28Z</time>
      </trkpt>
      <trkpt lat="46.87215" lon="5.80564">
        <ele>350.1</ele>
        <time>2021-08-29T13:13:34Z</time>
      </trkpt>
      <trkpt lat="46.87218" lon="5.80569">
        <ele>350.8</ele>
        <time>2021-08-29T13:13:39Z</time>
      </trkpt>
      <trkpt lat="46.87218" lon="5.80577">
        <ele>350.7</ele>
        <time>2021-08-29T13:13:44Z</time>
      </trkpt>
      <trkpt lat="46.87219" lon="5.80585">
        <ele>350.3</ele>
        <time>2021-08-29T13:13:49Z</time>
      </trkpt>
      <trkpt lat="46.8722" lon="5.80591">
        <ele>350.3</ele>
        <time>2021-08-29T13:13:54Z</time>
      </trkpt>
      <trkpt lat="46.8722" lon="5.80598">
        <ele>350.7</ele>
        <time>2021-08-29T13:14:01Z</time>
      </trkpt>
      <trkpt lat="46.87224" lon="5.80605">
        <ele>351</ele>
        <time>2021-08-29T13:14:06Z</time>
      </trkpt>
      <trkpt lat="46.87228" lon="5.80611">
        <ele>351.3</ele>
        <time>2021-08-29T13:14:10Z</time>
      </trkpt>
      <trkpt lat="46.87233" lon="5.80614">
        <ele>351.2</ele>
        <time>2021-08-29T13:14:14Z</time>
      </trkpt>
      <trkpt lat="46.87237" lon="5.80616">
        <ele>351.3</ele>
        <time>2021-08-29T13:14:18Z</time>
      </trkpt>
      <trkpt lat="46.87242" lon="5.80617">
        <ele>351.7</ele>
        <time>2021-08-29T13:14:24Z</time>
      </trkpt>
      <trkpt lat="46.87246" lon="5.80614">
        <ele>352.3</ele>
        <time>2021-08-29T13:14:29Z</time>
      </trkpt>
      <trkpt lat="46.8725" lon="5.80611">
        <ele>353.4</ele>
        <time>2021-08-29T13:14:34Z</time>
      </trkpt>
      <trkpt lat="46.87253" lon="5.80604">
        <ele>354.4</ele>
        <time>2021-08-29T13:14:41Z</time>
      </trkpt>
      <trkpt lat="46.87256" lon="5.80599">
        <ele>353</ele>
        <time>2021-08-29T13:14:50Z</time>
      </trkpt>
      <trkpt lat="46.87259" lon="5.80595">
        <ele>351.8</ele>
        <time>2021-08-29T13:14:56Z</time>
      </trkpt>
      <trkpt lat="46.87263" lon="5.8059">
        <ele>351.4</ele>
        <time>2021-08-29T13:15:01Z</time>
      </trkpt>
      <trkpt lat="46.87265" lon="5.80584">
        <ele>351</ele>
        <time>2021-08-29T13:15:04Z</time>
      </trkpt>
      <trkpt lat="46.87267" lon="5.80578">
        <ele>350.7</ele>
        <time>2021-08-29T13:15:08Z</time>
      </trkpt>
      <trkpt lat="46.87272" lon="5.80575">
        <ele>350.3</ele>
        <time>2021-08-29T13:15:13Z</time>
      </trkpt>
      <trkpt lat="46.87277" lon="5.80574">
        <ele>350.2</ele>
        <time>2021-08-29T13:15:18Z</time>
      </trkpt>
      <trkpt lat="46.8728" lon="5.80567">
        <ele>349.9</ele>
        <time>2021-08-29T13:15:22Z</time>
      </trkpt>
      <trkpt lat="46.87285" lon="5.80564">
        <ele>349.9</ele>
        <time>2021-08-29T13:15:27Z</time>
      </trkpt>
      <trkpt lat="46.8729" lon="5.80566">
        <ele>349.7</ele>
        <time>2021-08-29T13:15:31Z</time>
      </trkpt>
      <trkpt lat="46.87295" lon="5.80566">
        <ele>349</ele>
        <time>2021-08-29T13:15:35Z</time>
      </trkpt>
      <trkpt lat="46.87301" lon="5.80565">
        <ele>348.2</ele>
        <time>2021-08-29T13:15:40Z</time>
      </trkpt>
      <trkpt lat="46.87306" lon="5.80565">
        <ele>347.4</ele>
        <time>2021-08-29T13:15:45Z</time>
      </trkpt>
      <trkpt lat="46.8731" lon="5.8056">
        <ele>347</ele>
        <time>2021-08-29T13:15:53Z</time>
      </trkpt>
      <trkpt lat="46.87315" lon="5.8056">
        <ele>346.9</ele>
        <time>2021-08-29T13:15:58Z</time>
      </trkpt>
      <trkpt lat="46.87319" lon="5.80557">
        <ele>346.4</ele>
        <time>2021-08-29T13:16:04Z</time>
      </trkpt>
      <trkpt lat="46.87325" lon="5.80557">
        <ele>345.9</ele>
        <time>2021-08-29T13:16:09Z</time>
      </trkpt>
      <trkpt lat="46.87329" lon="5.80553">
        <ele>345.2</ele>
        <time>2021-08-29T13:16:14Z</time>
      </trkpt>
      <trkpt lat="46.87333" lon="5.80549">
        <ele>344.3</ele>
        <time>2021-08-29T13:16:20Z</time>
      </trkpt>
      <trkpt lat="46.87339" lon="5.8055">
        <ele>343.6</ele>
        <time>2021-08-29T13:16:25Z</time>
      </trkpt>
      <trkpt lat="46.87343" lon="5.80555">
        <ele>343.2</ele>
        <time>2021-08-29T13:16:28Z</time>
      </trkpt>
      <trkpt lat="46.87347" lon="5.8056">
        <ele>343.1</ele>
        <time>2021-08-29T13:16:32Z</time>
      </trkpt>
      <trkpt lat="46.87352" lon="5.80562">
        <ele>342.9</ele>
        <time>2021-08-29T13:16:39Z</time>
      </trkpt>
      <trkpt lat="46.87356" lon="5.80559">
        <ele>342.6</ele>
        <time>2021-08-29T13:16:44Z</time>
      </trkpt>
      <trkpt lat="46.87361" lon="5.80555">
        <ele>342.4</ele>
        <time>2021-08-29T13:16:49Z</time>
      </trkpt>
      <trkpt lat="46.87366" lon="5.80554">
        <ele>342.3</ele>
        <time>2021-08-29T13:16:53Z</time>
      </trkpt>
      <trkpt lat="46.87371" lon="5.80552">
        <ele>342.3</ele>
        <time>2021-08-29T13:16:57Z</time>
      </trkpt>
      <trkpt lat="46.87376" lon="5.80546">
        <ele>342.9</ele>
        <time>2021-08-29T13:17:01Z</time>
      </trkpt>
      <trkpt lat="46.87379" lon="5.80543">
        <ele>343.3</ele>
        <time>2021-08-29T13:17:05Z</time>
      </trkpt>
      <trkpt lat="46.87385" lon="5.80542">
        <ele>343.6</ele>
        <time>2021-08-29T13:17:11Z</time>
      </trkpt>
      <trkpt lat="46.8739" lon="5.80541">
        <ele>343.5</ele>
        <time>2021-08-29T13:17:16Z</time>
      </trkpt>
      <trkpt lat="46.87394" lon="5.80539">
        <ele>343.1</ele>
        <time>2021-08-29T13:17:20Z</time>
      </trkpt>
      <trkpt lat="46.87399" lon="5.80537">
        <ele>342.6</ele>
        <time>2021-08-29T13:17:26Z</time>
      </trkpt>
      <trkpt lat="46.87405" lon="5.80535">
        <ele>343</ele>
        <time>2021-08-29T13:17:31Z</time>
      </trkpt>
      <trkpt lat="46.8741" lon="5.80535">
        <ele>343.7</ele>
        <time>2021-08-29T13:17:36Z</time>
      </trkpt>
      <trkpt lat="46.87415" lon="5.80536">
        <ele>344.5</ele>
        <time>2021-08-29T13:17:40Z</time>
      </trkpt>
      <trkpt lat="46.8742" lon="5.80537">
        <ele>345.2</ele>
        <time>2021-08-29T13:17:44Z</time>
      </trkpt>
      <trkpt lat="46.87424" lon="5.80539">
        <ele>344.7</ele>
        <time>2021-08-29T13:17:50Z</time>
      </trkpt>
      <trkpt lat="46.87429" lon="5.8054">
        <ele>344.2</ele>
        <time>2021-08-29T13:17:55Z</time>
      </trkpt>
      <trkpt lat="46.87433" lon="5.80539">
        <ele>344.1</ele>
        <time>2021-08-29T13:17:59Z</time>
      </trkpt>
      <trkpt lat="46.87439" lon="5.80539">
        <ele>343.6</ele>
        <time>2021-08-29T13:18:04Z</time>
      </trkpt>
      <trkpt lat="46.87443" lon="5.80539">
        <ele>342.9</ele>
        <time>2021-08-29T13:18:09Z</time>
      </trkpt>
      <trkpt lat="46.87448" lon="5.8054">
        <ele>342</ele>
        <time>2021-08-29T13:18:15Z</time>
      </trkpt>
      <trkpt lat="46.87453" lon="5.80541">
        <ele>340.1</ele>
        <time>2021-08-29T13:18:24Z</time>
      </trkpt>
      <trkpt lat="46.87458" lon="5.80542">
        <ele>339.4</ele>
        <time>2021-08-29T13:18:28Z</time>
      </trkpt>
      <trkpt lat="46.87463" lon="5.80543">
        <ele>338.9</ele>
        <time>2021-08-29T13:18:31Z</time>
      </trkpt>
      <trkpt lat="46.87468" lon="5.80544">
        <ele>338.8</ele>
        <time>2021-08-29T13:18:34Z</time>
      </trkpt>
      <trkpt lat="46.87473" lon="5.80545">
        <ele>338.4</ele>
        <time>2021-08-29T13:18:38Z</time>
      </trkpt>
      <trkpt lat="46.87477" lon="5.80547">
        <ele>337.7</ele>
        <time>2021-08-29T13:18:43Z</time>
      </trkpt>
      <trkpt lat="46.87482" lon="5.8055">
        <ele>336.8</ele>
        <time>2021-08-29T13:18:51Z</time>
      </trkpt>
      <trkpt lat="46.87487" lon="5.80553">
        <ele>336.1</ele>
        <time>2021-08-29T13:18:56Z</time>
      </trkpt>
      <trkpt lat="46.87492" lon="5.80556">
        <ele>335</ele>
        <time>2021-08-29T13:19:01Z</time>
      </trkpt>
      <trkpt lat="46.87497" lon="5.80557">
        <ele>334.3</ele>
        <time>2021-08-29T13:19:06Z</time>
      </trkpt>
      <trkpt lat="46.87501" lon="5.80561">
        <ele>334.3</ele>
        <time>2021-08-29T13:19:13Z</time>
      </trkpt>
      <trkpt lat="46.87502" lon="5.80569">
        <ele>333</ele>
        <time>2021-08-29T13:19:20Z</time>
      </trkpt>
      <trkpt lat="46.87505" lon="5.80575">
        <ele>331.3</ele>
        <time>2021-08-29T13:19:27Z</time>
      </trkpt>
      <trkpt lat="46.87509" lon="5.80578">
        <ele>330</ele>
        <time>2021-08-29T13:19:32Z</time>
      </trkpt>
      <trkpt lat="46.87513" lon="5.80581">
        <ele>328.6</ele>
        <time>2021-08-29T13:19:39Z</time>
      </trkpt>
      <trkpt lat="46.87516" lon="5.80586">
        <ele>327.9</ele>
        <time>2021-08-29T13:19:45Z</time>
      </trkpt>
      <trkpt lat="46.8752" lon="5.80588">
        <ele>327.3</ele>
        <time>2021-08-29T13:19:51Z</time>
      </trkpt>
      <trkpt lat="46.87518" lon="5.80597">
        <ele>325.9</ele>
        <time>2021-08-29T13:19:59Z</time>
      </trkpt>
      <trkpt lat="46.87519" lon="5.80604">
        <ele>324.6</ele>
        <time>2021-08-29T13:20:03Z</time>
      </trkpt>
      <trkpt lat="46.87523" lon="5.80608">
        <ele>323.7</ele>
        <time>2021-08-29T13:20:06Z</time>
      </trkpt>
      <trkpt lat="46.87528" lon="5.80611">
        <ele>323.2</ele>
        <time>2021-08-29T13:20:09Z</time>
      </trkpt>
      <trkpt lat="46.87534" lon="5.80614">
        <ele>323</ele>
        <time>2021-08-29T13:20:12Z</time>
      </trkpt>
      <trkpt lat="46.8754" lon="5.80617">
        <ele>323</ele>
        <time>2021-08-29T13:20:17Z</time>
      </trkpt>
      <trkpt lat="46.87544" lon="5.80619">
        <ele>323.7</ele>
        <time>2021-08-29T13:20:21Z</time>
      </trkpt>
      <trkpt lat="46.8755" lon="5.80622">
        <ele>324.9</ele>
        <time>2021-08-29T13:20:25Z</time>
      </trkpt>
      <trkpt lat="46.87555" lon="5.80626">
        <ele>326.2</ele>
        <time>2021-08-29T13:20:29Z</time>
      </trkpt>
      <trkpt lat="46.87559" lon="5.80629">
        <ele>327.2</ele>
        <time>2021-08-29T13:20:33Z</time>
      </trkpt>
      <trkpt lat="46.87564" lon="5.80632">
        <ele>328.2</ele>
        <time>2021-08-29T13:20:39Z</time>
      </trkpt>
      <trkpt lat="46.87568" lon="5.80634">
        <ele>328.9</ele>
        <time>2021-08-29T13:20:43Z</time>
      </trkpt>
      <trkpt lat="46.87573" lon="5.80636">
        <ele>329.4</ele>
        <time>2021-08-29T13:20:47Z</time>
      </trkpt>
      <trkpt lat="46.87577" lon="5.80638">
        <ele>329.6</ele>
        <time>2021-08-29T13:20:50Z</time>
      </trkpt>
      <trkpt lat="46.87582" lon="5.80641">
        <ele>330.2</ele>
        <time>2021-08-29T13:20:54Z</time>
      </trkpt>
      <trkpt lat="46.87586" lon="5.80644">
        <ele>331.1</ele>
        <time>2021-08-29T13:20:58Z</time>
      </trkpt>
      <trkpt lat="46.87591" lon="5.80647">
        <ele>332.3</ele>
        <time>2021-08-29T13:21:03Z</time>
      </trkpt>
      <trkpt lat="46.87596" lon="5.80647">
        <ele>333.5</ele>
        <time>2021-08-29T13:21:08Z</time>
      </trkpt>
      <trkpt lat="46.876" lon="5.80652">
        <ele>334.3</ele>
        <time>2021-08-29T13:21:15Z</time>
      </trkpt>
      <trkpt lat="46.87602" lon="5.80659">
        <ele>333.2</ele>
        <time>2021-08-29T13:21:23Z</time>
      </trkpt>
      <trkpt lat="46.87605" lon="5.80665">
        <ele>331.9</ele>
        <time>2021-08-29T13:21:29Z</time>
      </trkpt>
      <trkpt lat="46.87608" lon="5.80671">
        <ele>330.9</ele>
        <time>2021-08-29T13:21:34Z</time>
      </trkpt>
      <trkpt lat="46.8761" lon="5.80676">
        <ele>329.6</ele>
        <time>2021-08-29T13:21:39Z</time>
      </trkpt>
      <trkpt lat="46.87614" lon="5.80681">
        <ele>328.8</ele>
        <time>2021-08-29T13:21:43Z</time>
      </trkpt>
      <trkpt lat="46.87618" lon="5.80684">
        <ele>327.8</ele>
        <time>2021-08-29T13:21:47Z</time>
      </trkpt>
      <trkpt lat="46.87623" lon="5.8068">
        <ele>327.1</ele>
        <time>2021-08-29T13:21:51Z</time>
      </trkpt>
      <trkpt lat="46.87619" lon="5.80674">
        <ele>320.2</ele>
        <time>2021-08-29T13:22:17Z</time>
      </trkpt>
      <trkpt lat="46.87615" lon="5.80677">
        <ele>318.8</ele>
        <time>2021-08-29T13:22:35Z</time>
      </trkpt>
      <trkpt lat="46.87621" lon="5.80676">
        <ele>319</ele>
        <time>2021-08-29T13:22:56Z</time>
      </trkpt>
      <trkpt lat="46.87626" lon="5.80678">
        <ele>318.7</ele>
        <time>2021-08-29T13:23:00Z</time>
      </trkpt>
      <trkpt lat="46.8763" lon="5.80684">
        <ele>318.4</ele>
        <time>2021-08-29T13:23:04Z</time>
      </trkpt>
      <trkpt lat="46.87633" lon="5.80689">
        <ele>318.6</ele>
        <time>2021-08-29T13:23:08Z</time>
      </trkpt>
      <trkpt lat="46.87637" lon="5.80694">
        <ele>319</ele>
        <time>2021-08-29T13:23:12Z</time>
      </trkpt>
      <trkpt lat="46.87642" lon="5.80697">
        <ele>319.2</ele>
        <time>2021-08-29T13:23:17Z</time>
      </trkpt>
      <trkpt lat="46.87645" lon="5.80703">
        <ele>317.7</ele>
        <time>2021-08-29T13:23:34Z</time>
      </trkpt>
      <trkpt lat="46.87648" lon="5.80708">
        <ele>317.8</ele>
        <time>2021-08-29T13:23:38Z</time>
      </trkpt>
      <trkpt lat="46.87653" lon="5.80712">
        <ele>318.6</ele>
        <time>2021-08-29T13:23:43Z</time>
      </trkpt>
      <trkpt lat="46.87657" lon="5.80712">
        <ele>319.5</ele>
        <time>2021-08-29T13:23:48Z</time>
      </trkpt>
      <trkpt lat="46.87662" lon="5.80711">
        <ele>319.9</ele>
        <time>2021-08-29T13:23:53Z</time>
      </trkpt>
      <trkpt lat="46.87667" lon="5.80712">
        <ele>320.3</ele>
        <time>2021-08-29T13:23:58Z</time>
      </trkpt>
      <trkpt lat="46.87672" lon="5.80715">
        <ele>321.1</ele>
        <time>2021-08-29T13:24:05Z</time>
      </trkpt>
      <trkpt lat="46.87676" lon="5.80717">
        <ele>321.4</ele>
        <time>2021-08-29T13:24:08Z</time>
      </trkpt>
      <trkpt lat="46.87681" lon="5.80718">
        <ele>321.5</ele>
        <time>2021-08-29T13:24:12Z</time>
      </trkpt>
      <trkpt lat="46.87687" lon="5.80718">
        <ele>321.4</ele>
        <time>2021-08-29T13:24:16Z</time>
      </trkpt>
      <trkpt lat="46.87692" lon="5.80718">
        <ele>321.5</ele>
        <time>2021-08-29T13:24:19Z</time>
      </trkpt>
      <trkpt lat="46.87697" lon="5.80718">
        <ele>321.9</ele>
        <time>2021-08-29T13:24:22Z</time>
      </trkpt>
      <trkpt lat="46.87702" lon="5.80719">
        <ele>322.5</ele>
        <time>2021-08-29T13:24:26Z</time>
      </trkpt>
      <trkpt lat="46.87706" lon="5.8072">
        <ele>323.5</ele>
        <time>2021-08-29T13:24:30Z</time>
      </trkpt>
      <trkpt lat="46.87711" lon="5.80718">
        <ele>324.6</ele>
        <time>2021-08-29T13:24:34Z</time>
      </trkpt>
      <trkpt lat="46.87716" lon="5.80718">
        <ele>325.6</ele>
        <time>2021-08-29T13:24:39Z</time>
      </trkpt>
      <trkpt lat="46.87721" lon="5.8072">
        <ele>325.4</ele>
        <time>2021-08-29T13:24:46Z</time>
      </trkpt>
      <trkpt lat="46.87726" lon="5.80722">
        <ele>324.6</ele>
        <time>2021-08-29T13:24:51Z</time>
      </trkpt>
      <trkpt lat="46.87731" lon="5.80722">
        <ele>324</ele>
        <time>2021-08-29T13:24:56Z</time>
      </trkpt>
      <trkpt lat="46.87736" lon="5.80723">
        <ele>323.4</ele>
        <time>2021-08-29T13:25:00Z</time>
      </trkpt>
      <trkpt lat="46.8774" lon="5.80724">
        <ele>322.9</ele>
        <time>2021-08-29T13:25:04Z</time>
      </trkpt>
      <trkpt lat="46.87745" lon="5.80725">
        <ele>322.8</ele>
        <time>2021-08-29T13:25:08Z</time>
      </trkpt>
      <trkpt lat="46.87749" lon="5.80727">
        <ele>323</ele>
        <time>2021-08-29T13:25:13Z</time>
      </trkpt>
      <trkpt lat="46.87754" lon="5.80729">
        <ele>323.5</ele>
        <time>2021-08-29T13:25:17Z</time>
      </trkpt>
      <trkpt lat="46.87758" lon="5.8073">
        <ele>324.1</ele>
        <time>2021-08-29T13:25:21Z</time>
      </trkpt>
      <trkpt lat="46.87763" lon="5.8073">
        <ele>324</ele>
        <time>2021-08-29T13:25:31Z</time>
      </trkpt>
      <trkpt lat="46.87768" lon="5.8073">
        <ele>322.7</ele>
        <time>2021-08-29T13:25:36Z</time>
      </trkpt>
      <trkpt lat="46.87773" lon="5.80729">
        <ele>321.6</ele>
        <time>2021-08-29T13:25:41Z</time>
      </trkpt>
      <trkpt lat="46.87778" lon="5.80728">
        <ele>320.8</ele>
        <time>2021-08-29T13:25:47Z</time>
      </trkpt>
      <trkpt lat="46.87783" lon="5.80727">
        <ele>321.1</ele>
        <time>2021-08-29T13:25:53Z</time>
      </trkpt>
      <trkpt lat="46.87787" lon="5.8073">
        <ele>321.8</ele>
        <time>2021-08-29T13:25:57Z</time>
      </trkpt>
      <trkpt lat="46.87792" lon="5.80731">
        <ele>322.2</ele>
        <time>2021-08-29T13:26:01Z</time>
      </trkpt>
      <trkpt lat="46.87797" lon="5.80729">
        <ele>322.7</ele>
        <time>2021-08-29T13:26:05Z</time>
      </trkpt>
      <trkpt lat="46.87801" lon="5.80726">
        <ele>323.3</ele>
        <time>2021-08-29T13:26:09Z</time>
      </trkpt>
      <trkpt lat="46.87806" lon="5.80725">
        <ele>324.1</ele>
        <time>2021-08-29T13:26:16Z</time>
      </trkpt>
      <trkpt lat="46.87811" lon="5.80723">
        <ele>323.5</ele>
        <time>2021-08-29T13:26:22Z</time>
      </trkpt>
      <trkpt lat="46.87815" lon="5.80719">
        <ele>322.5</ele>
        <time>2021-08-29T13:26:26Z</time>
      </trkpt>
      <trkpt lat="46.8782" lon="5.80716">
        <ele>322.2</ele>
        <time>2021-08-29T13:26:30Z</time>
      </trkpt>
      <trkpt lat="46.87825" lon="5.80717">
        <ele>322.4</ele>
        <time>2021-08-29T13:26:35Z</time>
      </trkpt>
      <trkpt lat="46.87828" lon="5.80712">
        <ele>323.7</ele>
        <time>2021-08-29T13:26:42Z</time>
      </trkpt>
      <trkpt lat="46.87829" lon="5.80705">
        <ele>323.8</ele>
        <time>2021-08-29T13:26:47Z</time>
      </trkpt>
      <trkpt lat="46.87832" lon="5.80699">
        <ele>323</ele>
        <time>2021-08-29T13:26:53Z</time>
      </trkpt>
      <trkpt lat="46.87836" lon="5.80694">
        <ele>322.1</ele>
        <time>2021-08-29T13:26:59Z</time>
      </trkpt>
      <trkpt lat="46.8784" lon="5.80689">
        <ele>321.8</ele>
        <time>2021-08-29T13:27:03Z</time>
      </trkpt>
      <trkpt lat="46.87844" lon="5.80686">
        <ele>322</ele>
        <time>2021-08-29T13:27:07Z</time>
      </trkpt>
      <trkpt lat="46.87849" lon="5.80686">
        <ele>322.3</ele>
        <time>2021-08-29T13:27:11Z</time>
      </trkpt>
      <trkpt lat="46.87854" lon="5.80687">
        <ele>322.3</ele>
        <time>2021-08-29T13:27:15Z</time>
      </trkpt>
      <trkpt lat="46.87859" lon="5.80683">
        <ele>321.1</ele>
        <time>2021-08-29T13:27:23Z</time>
      </trkpt>
      <trkpt lat="46.87863" lon="5.80678">
        <ele>319.9</ele>
        <time>2021-08-29T13:27:28Z</time>
      </trkpt>
      <trkpt lat="46.87868" lon="5.80675">
        <ele>319</ele>
        <time>2021-08-29T13:27:32Z</time>
      </trkpt>
      <trkpt lat="46.87872" lon="5.8067">
        <ele>318.1</ele>
        <time>2021-08-29T13:27:37Z</time>
      </trkpt>
      <trkpt lat="46.87874" lon="5.80664">
        <ele>318</ele>
        <time>2021-08-29T13:27:41Z</time>
      </trkpt>
      <trkpt lat="46.87877" lon="5.80658">
        <ele>318.4</ele>
        <time>2021-08-29T13:27:46Z</time>
      </trkpt>
      <trkpt lat="46.87881" lon="5.80654">
        <ele>318.8</ele>
        <time>2021-08-29T13:27:50Z</time>
      </trkpt>
      <trkpt lat="46.87885" lon="5.8065">
        <ele>319.2</ele>
        <time>2021-08-29T13:27:55Z</time>
      </trkpt>
      <trkpt lat="46.87889" lon="5.80646">
        <ele>319.7</ele>
        <time>2021-08-29T13:28:01Z</time>
      </trkpt>
      <trkpt lat="46.87893" lon="5.80642">
        <ele>321.3</ele>
        <time>2021-08-29T13:28:09Z</time>
      </trkpt>
      <trkpt lat="46.87897" lon="5.80638">
        <ele>322.2</ele>
        <time>2021-08-29T13:28:14Z</time>
      </trkpt>
      <trkpt lat="46.87903" lon="5.80637">
        <ele>322.7</ele>
        <time>2021-08-29T13:28:18Z</time>
      </trkpt>
      <trkpt lat="46.87909" lon="5.80638">
        <ele>323.3</ele>
        <time>2021-08-29T13:28:22Z</time>
      </trkpt>
      <trkpt lat="46.87914" lon="5.80636">
        <ele>323.5</ele>
        <time>2021-08-29T13:28:26Z</time>
      </trkpt>
      <trkpt lat="46.87918" lon="5.80635">
        <ele>323.2</ele>
        <time>2021-08-29T13:28:35Z</time>
      </trkpt>
      <trkpt lat="46.87923" lon="5.80634">
        <ele>323.8</ele>
        <time>2021-08-29T13:28:41Z</time>
      </trkpt>
      <trkpt lat="46.87929" lon="5.80634">
        <ele>324</ele>
        <time>2021-08-29T13:28:45Z</time>
      </trkpt>
      <trkpt lat="46.87933" lon="5.80631">
        <ele>324.2</ele>
        <time>2021-08-29T13:28:50Z</time>
      </trkpt>
      <trkpt lat="46.87936" lon="5.80625">
        <ele>324.2</ele>
        <time>2021-08-29T13:28:53Z</time>
      </trkpt>
      <trkpt lat="46.87939" lon="5.80619">
        <ele>324.3</ele>
        <time>2021-08-29T13:28:56Z</time>
      </trkpt>
      <trkpt lat="46.8794" lon="5.80612">
        <ele>323.8</ele>
        <time>2021-08-29T13:29:02Z</time>
      </trkpt>
      <trkpt lat="46.87944" lon="5.80609">
        <ele>323.4</ele>
        <time>2021-08-29T13:29:06Z</time>
      </trkpt>
      <trkpt lat="46.87949" lon="5.80608">
        <ele>322.8</ele>
        <time>2021-08-29T13:29:10Z</time>
      </trkpt>
      <trkpt lat="46.87953" lon="5.80603">
        <ele>321.7</ele>
        <time>2021-08-29T13:29:15Z</time>
      </trkpt>
      <trkpt lat="46.87957" lon="5.80598">
        <ele>320.2</ele>
        <time>2021-08-29T13:29:22Z</time>
      </trkpt>
      <trkpt lat="46.8796" lon="5.80592">
        <ele>319</ele>
        <time>2021-08-29T13:29:27Z</time>
      </trkpt>
      <trkpt lat="46.87964" lon="5.80588">
        <ele>317.7</ele>
        <time>2021-08-29T13:29:33Z</time>
      </trkpt>
      <trkpt lat="46.87968" lon="5.80583">
        <ele>317.2</ele>
        <time>2021-08-29T13:29:37Z</time>
      </trkpt>
      <trkpt lat="46.87971" lon="5.80577">
        <ele>316.6</ele>
        <time>2021-08-29T13:29:45Z</time>
      </trkpt>
      <trkpt lat="46.87975" lon="5.80573">
        <ele>316</ele>
        <time>2021-08-29T13:29:51Z</time>
      </trkpt>
      <trkpt lat="46.87979" lon="5.80568">
        <ele>315.9</ele>
        <time>2021-08-29T13:29:58Z</time>
      </trkpt>
      <trkpt lat="46.87983" lon="5.80563">
        <ele>316.3</ele>
        <time>2021-08-29T13:30:02Z</time>
      </trkpt>
      <trkpt lat="46.87986" lon="5.80556">
        <ele>317.2</ele>
        <time>2021-08-29T13:30:06Z</time>
      </trkpt>
      <trkpt lat="46.87989" lon="5.8055">
        <ele>318.3</ele>
        <time>2021-08-29T13:30:10Z</time>
      </trkpt>
      <trkpt lat="46.87992" lon="5.80544">
        <ele>319.6</ele>
        <time>2021-08-29T13:30:15Z</time>
      </trkpt>
      <trkpt lat="46.87996" lon="5.8054">
        <ele>320.9</ele>
        <time>2021-08-29T13:30:20Z</time>
      </trkpt>
      <trkpt lat="46.88001" lon="5.80538">
        <ele>322</ele>
        <time>2021-08-29T13:30:25Z</time>
      </trkpt>
      <trkpt lat="46.88004" lon="5.80533">
        <ele>322.8</ele>
        <time>2021-08-29T13:30:30Z</time>
      </trkpt>
      <trkpt lat="46.88007" lon="5.80527">
        <ele>322.7</ele>
        <time>2021-08-29T13:30:34Z</time>
      </trkpt>
      <trkpt lat="46.8801" lon="5.80521">
        <ele>322.1</ele>
        <time>2021-08-29T13:30:38Z</time>
      </trkpt>
      <trkpt lat="46.88013" lon="5.80515">
        <ele>321.2</ele>
        <time>2021-08-29T13:30:43Z</time>
      </trkpt>
      <trkpt lat="46.88016" lon="5.80509">
        <ele>320.7</ele>
        <time>2021-08-29T13:30:48Z</time>
      </trkpt>
      <trkpt lat="46.88018" lon="5.80503">
        <ele>320.7</ele>
        <time>2021-08-29T13:30:53Z</time>
      </trkpt>
      <trkpt lat="46.88022" lon="5.80498">
        <ele>320.8</ele>
        <time>2021-08-29T13:30:59Z</time>
      </trkpt>
      <trkpt lat="46.88026" lon="5.80493">
        <ele>320.9</ele>
        <time>2021-08-29T13:31:04Z</time>
      </trkpt>
      <trkpt lat="46.88029" lon="5.80487">
        <ele>321.5</ele>
        <time>2021-08-29T13:31:09Z</time>
      </trkpt>
      <trkpt lat="46.88033" lon="5.80483">
        <ele>321.4</ele>
        <time>2021-08-29T13:31:13Z</time>
      </trkpt>
      <trkpt lat="46.88037" lon="5.8048">
        <ele>320.7</ele>
        <time>2021-08-29T13:31:18Z</time>
      </trkpt>
      <trkpt lat="46.8804" lon="5.80473">
        <ele>318.6</ele>
        <time>2021-08-29T13:31:31Z</time>
      </trkpt>
      <trkpt lat="46.88042" lon="5.80466">
        <ele>318</ele>
        <time>2021-08-29T13:31:36Z</time>
      </trkpt>
      <trkpt lat="46.88045" lon="5.8046">
        <ele>317.6</ele>
        <time>2021-08-29T13:31:40Z</time>
      </trkpt>
      <trkpt lat="46.88048" lon="5.80454">
        <ele>317</ele>
        <time>2021-08-29T13:31:44Z</time>
      </trkpt>
      <trkpt lat="46.88052" lon="5.8045">
        <ele>316.1</ele>
        <time>2021-08-29T13:31:48Z</time>
      </trkpt>
      <trkpt lat="46.88056" lon="5.80446">
        <ele>315.5</ele>
        <time>2021-08-29T13:31:52Z</time>
      </trkpt>
      <trkpt lat="46.88055" lon="5.80439">
        <ele>314.4</ele>
        <time>2021-08-29T13:32:02Z</time>
      </trkpt>
      <trkpt lat="46.88061" lon="5.80437">
        <ele>313.2</ele>
        <time>2021-08-29T13:32:08Z</time>
      </trkpt>
      <trkpt lat="46.88064" lon="5.80432">
        <ele>312.2</ele>
        <time>2021-08-29T13:32:14Z</time>
      </trkpt>
      <trkpt lat="46.88069" lon="5.80429">
        <ele>311.8</ele>
        <time>2021-08-29T13:32:18Z</time>
      </trkpt>
      <trkpt lat="46.88074" lon="5.80426">
        <ele>311.8</ele>
        <time>2021-08-29T13:32:21Z</time>
      </trkpt>
      <trkpt lat="46.88078" lon="5.80425">
        <ele>312</ele>
        <time>2021-08-29T13:32:24Z</time>
      </trkpt>
      <trkpt lat="46.88083" lon="5.80423">
        <ele>312.7</ele>
        <time>2021-08-29T13:32:29Z</time>
      </trkpt>
      <trkpt lat="46.88088" lon="5.8042">
        <ele>313.3</ele>
        <time>2021-08-29T13:32:32Z</time>
      </trkpt>
      <trkpt lat="46.88093" lon="5.80418">
        <ele>314.2</ele>
        <time>2021-08-29T13:32:36Z</time>
      </trkpt>
      <trkpt lat="46.88098" lon="5.80418">
        <ele>315.3</ele>
        <time>2021-08-29T13:32:41Z</time>
      </trkpt>
      <trkpt lat="46.88104" lon="5.80419">
        <ele>316.2</ele>
        <time>2021-08-29T13:32:46Z</time>
      </trkpt>
      <trkpt lat="46.88109" lon="5.80419">
        <ele>316.9</ele>
        <time>2021-08-29T13:32:49Z</time>
      </trkpt>
      <trkpt lat="46.88114" lon="5.80419">
        <ele>318.3</ele>
        <time>2021-08-29T13:32:53Z</time>
      </trkpt>
      <trkpt lat="46.88118" lon="5.80415">
        <ele>319.8</ele>
        <time>2021-08-29T13:32:59Z</time>
      </trkpt>
      <trkpt lat="46.88123" lon="5.80415">
        <ele>320.4</ele>
        <time>2021-08-29T13:33:03Z</time>
      </trkpt>
      <trkpt lat="46.88127" lon="5.80417">
        <ele>320.9</ele>
        <time>2021-08-29T13:33:08Z</time>
      </trkpt>
      <trkpt lat="46.88132" lon="5.80416">
        <ele>321.2</ele>
        <time>2021-08-29T13:33:16Z</time>
      </trkpt>
      <trkpt lat="46.88137" lon="5.80416">
        <ele>320.9</ele>
        <time>2021-08-29T13:33:21Z</time>
      </trkpt>
      <trkpt lat="46.88143" lon="5.80413">
        <ele>320.8</ele>
        <time>2021-08-29T13:33:25Z</time>
      </trkpt>
      <trkpt lat="46.88148" lon="5.80413">
        <ele>321</ele>
        <time>2021-08-29T13:33:29Z</time>
      </trkpt>
      <trkpt lat="46.88154" lon="5.80411">
        <ele>321.4</ele>
        <time>2021-08-29T13:33:33Z</time>
      </trkpt>
      <trkpt lat="46.88159" lon="5.80409">
        <ele>321.9</ele>
        <time>2021-08-29T13:33:37Z</time>
      </trkpt>
      <trkpt lat="46.88164" lon="5.80408">
        <ele>322.2</ele>
        <time>2021-08-29T13:33:42Z</time>
      </trkpt>
      <trkpt lat="46.88164" lon="5.804">
        <ele>320.7</ele>
        <time>2021-08-29T13:33:50Z</time>
      </trkpt>
      <trkpt lat="46.88169" lon="5.80397">
        <ele>319.7</ele>
        <time>2021-08-29T13:33:56Z</time>
      </trkpt>
      <trkpt lat="46.88174" lon="5.80397">
        <ele>319.4</ele>
        <time>2021-08-29T13:34:00Z</time>
      </trkpt>
      <trkpt lat="46.88178" lon="5.80396">
        <ele>319.1</ele>
        <time>2021-08-29T13:34:03Z</time>
      </trkpt>
      <trkpt lat="46.88184" lon="5.80394">
        <ele>318.9</ele>
        <time>2021-08-29T13:34:07Z</time>
      </trkpt>
      <trkpt lat="46.8819" lon="5.80392">
        <ele>319.2</ele>
        <time>2021-08-29T13:34:11Z</time>
      </trkpt>
      <trkpt lat="46.88194" lon="5.8039">
        <ele>319.7</ele>
        <time>2021-08-29T13:34:16Z</time>
      </trkpt>
      <trkpt lat="46.88199" lon="5.80386">
        <ele>318.9</ele>
        <time>2021-08-29T13:34:25Z</time>
      </trkpt>
      <trkpt lat="46.88203" lon="5.80384">
        <ele>318.2</ele>
        <time>2021-08-29T13:34:30Z</time>
      </trkpt>
      <trkpt lat="46.88208" lon="5.80382">
        <ele>317.4</ele>
        <time>2021-08-29T13:34:35Z</time>
      </trkpt>
      <trkpt lat="46.88213" lon="5.80381">
        <ele>316.8</ele>
        <time>2021-08-29T13:34:40Z</time>
      </trkpt>
      <trkpt lat="46.88219" lon="5.80379">
        <ele>317.2</ele>
        <time>2021-08-29T13:34:46Z</time>
      </trkpt>
      <trkpt lat="46.88223" lon="5.80377">
        <ele>317.7</ele>
        <time>2021-08-29T13:34:52Z</time>
      </trkpt>
      <trkpt lat="46.88229" lon="5.80377">
        <ele>317.7</ele>
        <time>2021-08-29T13:34:56Z</time>
      </trkpt>
      <trkpt lat="46.88234" lon="5.80376">
        <ele>317.8</ele>
        <time>2021-08-29T13:34:59Z</time>
      </trkpt>
      <trkpt lat="46.88239" lon="5.80375">
        <ele>318</ele>
        <time>2021-08-29T13:35:02Z</time>
      </trkpt>
      <trkpt lat="46.88245" lon="5.80374">
        <ele>318.3</ele>
        <time>2021-08-29T13:35:06Z</time>
      </trkpt>
      <trkpt lat="46.8825" lon="5.80374">
        <ele>319.3</ele>
        <time>2021-08-29T13:35:11Z</time>
      </trkpt>
      <trkpt lat="46.88255" lon="5.80375">
        <ele>320.8</ele>
        <time>2021-08-29T13:35:17Z</time>
      </trkpt>
      <trkpt lat="46.88259" lon="5.80374">
        <ele>320.9</ele>
        <time>2021-08-29T13:35:24Z</time>
      </trkpt>
      <trkpt lat="46.88264" lon="5.80372">
        <ele>319.5</ele>
        <time>2021-08-29T13:35:30Z</time>
      </trkpt>
      <trkpt lat="46.88268" lon="5.80368">
        <ele>318.4</ele>
        <time>2021-08-29T13:35:35Z</time>
      </trkpt>
      <trkpt lat="46.88273" lon="5.80366">
        <ele>317.7</ele>
        <time>2021-08-29T13:35:39Z</time>
      </trkpt>
      <trkpt lat="46.88278" lon="5.80363">
        <ele>316.2</ele>
        <time>2021-08-29T13:35:45Z</time>
      </trkpt>
      <trkpt lat="46.88283" lon="5.80361">
        <ele>313.6</ele>
        <time>2021-08-29T13:35:51Z</time>
      </trkpt>
      <trkpt lat="46.88289" lon="5.8036">
        <ele>312.2</ele>
        <time>2021-08-29T13:35:55Z</time>
      </trkpt>
      <trkpt lat="46.88294" lon="5.80359">
        <ele>311.4</ele>
        <time>2021-08-29T13:35:59Z</time>
      </trkpt>
      <trkpt lat="46.88299" lon="5.80359">
        <ele>311.8</ele>
        <time>2021-08-29T13:36:04Z</time>
      </trkpt>
      <trkpt lat="46.88302" lon="5.80363">
        <ele>314</ele>
        <time>2021-08-29T13:36:10Z</time>
      </trkpt>
      <trkpt lat="46.88305" lon="5.8037">
        <ele>314.6</ele>
        <time>2021-08-29T13:36:15Z</time>
      </trkpt>
      <trkpt lat="46.88308" lon="5.80375">
        <ele>314.6</ele>
        <time>2021-08-29T13:36:20Z</time>
      </trkpt>
      <trkpt lat="46.88313" lon="5.80378">
        <ele>313.4</ele>
        <time>2021-08-29T13:36:33Z</time>
      </trkpt>
      <trkpt lat="46.88318" lon="5.8038">
        <ele>313.2</ele>
        <time>2021-08-29T13:36:39Z</time>
      </trkpt>
      <trkpt lat="46.88323" lon="5.80379">
        <ele>313.5</ele>
        <time>2021-08-29T13:36:43Z</time>
      </trkpt>
      <trkpt lat="46.88328" lon="5.80377">
        <ele>313.8</ele>
        <time>2021-08-29T13:36:47Z</time>
      </trkpt>
      <trkpt lat="46.88333" lon="5.80376">
        <ele>314.3</ele>
        <time>2021-08-29T13:36:52Z</time>
      </trkpt>
      <trkpt lat="46.88338" lon="5.80376">
        <ele>314.6</ele>
        <time>2021-08-29T13:36:58Z</time>
      </trkpt>
    </trkseg>
  </trk>
</gpx>